<?xml version="1.0" encoding="UTF-8" standalone="no" ?>
<gpx xmlns="http://www.topografix.com/GPX/1/1" xmlns:xsi="http://www.w3.org/2001/XMLSchema-instance" xsi:schemaLocation="http://www.topografix.com/GPX/1/1 http://www.topografix.com/GPX/1/1/gpx.xsd" version="1.1" creator="VisuGPX - https://www.visugpx.com">
  <metadata>
    <name>25-AVR-22 12:12:55 PM</name>
  </metadata>
  <trk>
    <name><![CDATA[25-AVR-22 12:12:55 PM]]></name>
    <trkseg>
      <trkpt lat="45.32247" lon="4.77772">
        <ele>154.43</ele>
        <time>2022-04-25T06:04:40Z</time>
      </trkpt>
      <trkpt lat="45.32246" lon="4.77773">
        <ele>-23.9</ele>
        <time>2022-04-25T06:04:44Z</time>
      </trkpt>
      <trkpt lat="45.32246" lon="4.77774">
        <ele>-23.9</ele>
        <time>2022-04-25T06:04:45Z</time>
      </trkpt>
      <trkpt lat="45.32244" lon="4.77777">
        <ele>-23.41</ele>
        <time>2022-04-25T06:05:18Z</time>
      </trkpt>
      <trkpt lat="45.32247" lon="4.77774">
        <ele>-24.38</ele>
        <time>2022-04-25T06:05:46Z</time>
      </trkpt>
      <trkpt lat="45.32248" lon="4.77768">
        <ele>-23.9</ele>
        <time>2022-04-25T06:06:08Z</time>
      </trkpt>
      <trkpt lat="45.32251" lon="4.7777">
        <ele>-23.9</ele>
        <time>2022-04-25T06:06:31Z</time>
      </trkpt>
      <trkpt lat="45.32247" lon="4.77774">
        <ele>-24.38</ele>
        <time>2022-04-25T06:06:49Z</time>
      </trkpt>
      <trkpt lat="45.3224" lon="4.77774">
        <ele>-24.38</ele>
        <time>2022-04-25T06:07:03Z</time>
      </trkpt>
      <trkpt lat="45.32239" lon="4.77772">
        <ele>-24.38</ele>
        <time>2022-04-25T06:07:05Z</time>
      </trkpt>
      <trkpt lat="45.32231" lon="4.77757">
        <ele>-24.86</ele>
        <time>2022-04-25T06:07:22Z</time>
      </trkpt>
      <trkpt lat="45.32205" lon="4.77719">
        <ele>-25.34</ele>
        <time>2022-04-25T06:07:44Z</time>
      </trkpt>
      <trkpt lat="45.32195" lon="4.77691">
        <ele>-25.34</ele>
        <time>2022-04-25T06:08:00Z</time>
      </trkpt>
      <trkpt lat="45.32179" lon="4.77659">
        <ele>-25.34</ele>
        <time>2022-04-25T06:08:19Z</time>
      </trkpt>
      <trkpt lat="45.32167" lon="4.77632">
        <ele>-25.34</ele>
        <time>2022-04-25T06:08:38Z</time>
      </trkpt>
      <trkpt lat="45.3216" lon="4.77594">
        <ele>-25.34</ele>
        <time>2022-04-25T06:08:56Z</time>
      </trkpt>
      <trkpt lat="45.32161" lon="4.77555">
        <ele>-24.86</ele>
        <time>2022-04-25T06:09:10Z</time>
      </trkpt>
      <trkpt lat="45.32154" lon="4.77525">
        <ele>-25.34</ele>
        <time>2022-04-25T06:09:27Z</time>
      </trkpt>
      <trkpt lat="45.32146" lon="4.77498">
        <ele>-24.86</ele>
        <time>2022-04-25T06:09:42Z</time>
      </trkpt>
      <trkpt lat="45.32135" lon="4.77468">
        <ele>-24.38</ele>
        <time>2022-04-25T06:10:01Z</time>
      </trkpt>
      <trkpt lat="45.32126" lon="4.77441">
        <ele>-25.34</ele>
        <time>2022-04-25T06:10:20Z</time>
      </trkpt>
      <trkpt lat="45.3212" lon="4.77424">
        <ele>-24.86</ele>
        <time>2022-04-25T06:10:30Z</time>
      </trkpt>
      <trkpt lat="45.32112" lon="4.77399">
        <ele>-24.86</ele>
        <time>2022-04-25T06:10:47Z</time>
      </trkpt>
      <trkpt lat="45.32117" lon="4.77385">
        <ele>-24.38</ele>
        <time>2022-04-25T06:10:58Z</time>
      </trkpt>
      <trkpt lat="45.32117" lon="4.77375">
        <ele>-23.9</ele>
        <time>2022-04-25T06:11:05Z</time>
      </trkpt>
      <trkpt lat="45.32117" lon="4.77368">
        <ele>-22.93</ele>
        <time>2022-04-25T06:11:10Z</time>
      </trkpt>
      <trkpt lat="45.32112" lon="4.77345">
        <ele>-21.97</ele>
        <time>2022-04-25T06:11:27Z</time>
      </trkpt>
      <trkpt lat="45.32111" lon="4.77342">
        <ele>-21.97</ele>
        <time>2022-04-25T06:11:30Z</time>
      </trkpt>
      <trkpt lat="45.321" lon="4.77312">
        <ele>-21.01</ele>
        <time>2022-04-25T06:11:49Z</time>
      </trkpt>
      <trkpt lat="45.32087" lon="4.77278">
        <ele>-19.57</ele>
        <time>2022-04-25T06:12:08Z</time>
      </trkpt>
      <trkpt lat="45.32075" lon="4.77246">
        <ele>-17.65</ele>
        <time>2022-04-25T06:12:26Z</time>
      </trkpt>
      <trkpt lat="45.32064" lon="4.77225">
        <ele>-16.21</ele>
        <time>2022-04-25T06:12:43Z</time>
      </trkpt>
      <trkpt lat="45.32062" lon="4.77219">
        <ele>-15.72</ele>
        <time>2022-04-25T06:12:47Z</time>
      </trkpt>
      <trkpt lat="45.32053" lon="4.77194">
        <ele>-13.8</ele>
        <time>2022-04-25T06:13:01Z</time>
      </trkpt>
      <trkpt lat="45.32035" lon="4.77157">
        <ele>-12.84</ele>
        <time>2022-04-25T06:13:21Z</time>
      </trkpt>
      <trkpt lat="45.32023" lon="4.77133">
        <ele>-11.4</ele>
        <time>2022-04-25T06:13:37Z</time>
      </trkpt>
      <trkpt lat="45.32014" lon="4.77105">
        <ele>-10.92</ele>
        <time>2022-04-25T06:13:55Z</time>
      </trkpt>
      <trkpt lat="45.32009" lon="4.77081">
        <ele>-8.51</ele>
        <time>2022-04-25T06:14:10Z</time>
      </trkpt>
      <trkpt lat="45.31987" lon="4.77049">
        <ele>-7.07</ele>
        <time>2022-04-25T06:14:27Z</time>
      </trkpt>
      <trkpt lat="45.31971" lon="4.77012">
        <ele>-5.15</ele>
        <time>2022-04-25T06:14:48Z</time>
      </trkpt>
      <trkpt lat="45.31964" lon="4.76992">
        <ele>-2.27</ele>
        <time>2022-04-25T06:15:06Z</time>
      </trkpt>
      <trkpt lat="45.3196" lon="4.76983">
        <ele>-1.79</ele>
        <time>2022-04-25T06:15:14Z</time>
      </trkpt>
      <trkpt lat="45.3195" lon="4.76954">
        <ele>-0.34</ele>
        <time>2022-04-25T06:15:29Z</time>
      </trkpt>
      <trkpt lat="45.31943" lon="4.76928">
        <ele>0.62</ele>
        <time>2022-04-25T06:15:44Z</time>
      </trkpt>
      <trkpt lat="45.31936" lon="4.76916">
        <ele>1.1</ele>
        <time>2022-04-25T06:15:51Z</time>
      </trkpt>
      <trkpt lat="45.31938" lon="4.7691">
        <ele>1.1</ele>
        <time>2022-04-25T06:15:58Z</time>
      </trkpt>
      <trkpt lat="45.31932" lon="4.7689">
        <ele>3.5</ele>
        <time>2022-04-25T06:16:11Z</time>
      </trkpt>
      <trkpt lat="45.31927" lon="4.76862">
        <ele>4.94</ele>
        <time>2022-04-25T06:16:27Z</time>
      </trkpt>
      <trkpt lat="45.31927" lon="4.76861">
        <ele>4.94</ele>
        <time>2022-04-25T06:16:28Z</time>
      </trkpt>
      <trkpt lat="45.31932" lon="4.76852">
        <ele>5.42</ele>
        <time>2022-04-25T06:16:35Z</time>
      </trkpt>
      <trkpt lat="45.31935" lon="4.76848">
        <ele>5.42</ele>
        <time>2022-04-25T06:16:39Z</time>
      </trkpt>
      <trkpt lat="45.31929" lon="4.76833">
        <ele>5.91</ele>
        <time>2022-04-25T06:16:49Z</time>
      </trkpt>
      <trkpt lat="45.31909" lon="4.76835">
        <ele>9.27</ele>
        <time>2022-04-25T06:17:04Z</time>
      </trkpt>
      <trkpt lat="45.319" lon="4.76831">
        <ele>10.71</ele>
        <time>2022-04-25T06:17:14Z</time>
      </trkpt>
      <trkpt lat="45.31892" lon="4.76821">
        <ele>12.15</ele>
        <time>2022-04-25T06:17:22Z</time>
      </trkpt>
      <trkpt lat="45.31877" lon="4.76794">
        <ele>13.6</ele>
        <time>2022-04-25T06:17:37Z</time>
      </trkpt>
      <trkpt lat="45.31869" lon="4.76778">
        <ele>15.52</ele>
        <time>2022-04-25T06:17:48Z</time>
      </trkpt>
      <trkpt lat="45.31866" lon="4.7677">
        <ele>16</ele>
        <time>2022-04-25T06:17:53Z</time>
      </trkpt>
      <trkpt lat="45.31855" lon="4.76749">
        <ele>17.44</ele>
        <time>2022-04-25T06:18:07Z</time>
      </trkpt>
      <trkpt lat="45.3185" lon="4.76732">
        <ele>18.4</ele>
        <time>2022-04-25T06:18:18Z</time>
      </trkpt>
      <trkpt lat="45.31843" lon="4.76717">
        <ele>18.88</ele>
        <time>2022-04-25T06:18:31Z</time>
      </trkpt>
      <trkpt lat="45.31833" lon="4.767">
        <ele>20.32</ele>
        <time>2022-04-25T06:18:41Z</time>
      </trkpt>
      <trkpt lat="45.31823" lon="4.76678">
        <ele>20.32</ele>
        <time>2022-04-25T06:18:54Z</time>
      </trkpt>
      <trkpt lat="45.3182" lon="4.76673">
        <ele>20.32</ele>
        <time>2022-04-25T06:18:57Z</time>
      </trkpt>
      <trkpt lat="45.31811" lon="4.76652">
        <ele>19.84</ele>
        <time>2022-04-25T06:19:10Z</time>
      </trkpt>
      <trkpt lat="45.31804" lon="4.76635">
        <ele>18.88</ele>
        <time>2022-04-25T06:19:20Z</time>
      </trkpt>
      <trkpt lat="45.31795" lon="4.76612">
        <ele>18.88</ele>
        <time>2022-04-25T06:19:33Z</time>
      </trkpt>
      <trkpt lat="45.31797" lon="4.766">
        <ele>18.88</ele>
        <time>2022-04-25T06:19:39Z</time>
      </trkpt>
      <trkpt lat="45.31802" lon="4.7659">
        <ele>18.4</ele>
        <time>2022-04-25T06:19:46Z</time>
      </trkpt>
      <trkpt lat="45.31816" lon="4.76566">
        <ele>17.92</ele>
        <time>2022-04-25T06:20:04Z</time>
      </trkpt>
      <trkpt lat="45.31834" lon="4.76549">
        <ele>17.92</ele>
        <time>2022-04-25T06:20:20Z</time>
      </trkpt>
      <trkpt lat="45.31855" lon="4.76522">
        <ele>18.88</ele>
        <time>2022-04-25T06:20:39Z</time>
      </trkpt>
      <trkpt lat="45.31871" lon="4.76501">
        <ele>19.36</ele>
        <time>2022-04-25T06:20:55Z</time>
      </trkpt>
      <trkpt lat="45.31884" lon="4.76488">
        <ele>20.32</ele>
        <time>2022-04-25T06:21:10Z</time>
      </trkpt>
      <trkpt lat="45.31891" lon="4.76486">
        <ele>20.81</ele>
        <time>2022-04-25T06:21:19Z</time>
      </trkpt>
      <trkpt lat="45.31903" lon="4.76481">
        <ele>21.77</ele>
        <time>2022-04-25T06:21:33Z</time>
      </trkpt>
      <trkpt lat="45.31914" lon="4.76474">
        <ele>23.21</ele>
        <time>2022-04-25T06:21:46Z</time>
      </trkpt>
      <trkpt lat="45.31923" lon="4.76466">
        <ele>23.21</ele>
        <time>2022-04-25T06:21:55Z</time>
      </trkpt>
      <trkpt lat="45.31939" lon="4.76454">
        <ele>23.69</ele>
        <time>2022-04-25T06:22:07Z</time>
      </trkpt>
      <trkpt lat="45.31949" lon="4.76455">
        <ele>24.17</ele>
        <time>2022-04-25T06:22:19Z</time>
      </trkpt>
      <trkpt lat="45.3195" lon="4.76429">
        <ele>25.13</ele>
        <time>2022-04-25T06:22:33Z</time>
      </trkpt>
      <trkpt lat="45.31953" lon="4.76424">
        <ele>24.65</ele>
        <time>2022-04-25T06:22:38Z</time>
      </trkpt>
      <trkpt lat="45.31961" lon="4.76417">
        <ele>25.61</ele>
        <time>2022-04-25T06:22:46Z</time>
      </trkpt>
      <trkpt lat="45.31974" lon="4.76398">
        <ele>26.09</ele>
        <time>2022-04-25T06:23:00Z</time>
      </trkpt>
      <trkpt lat="45.31988" lon="4.76381">
        <ele>26.57</ele>
        <time>2022-04-25T06:23:13Z</time>
      </trkpt>
      <trkpt lat="45.32007" lon="4.76359">
        <ele>28.02</ele>
        <time>2022-04-25T06:23:30Z</time>
      </trkpt>
      <trkpt lat="45.32021" lon="4.76342">
        <ele>28.02</ele>
        <time>2022-04-25T06:23:44Z</time>
      </trkpt>
      <trkpt lat="45.32032" lon="4.7632">
        <ele>28.5</ele>
        <time>2022-04-25T06:24:02Z</time>
      </trkpt>
      <trkpt lat="45.32041" lon="4.76313">
        <ele>29.46</ele>
        <time>2022-04-25T06:24:13Z</time>
      </trkpt>
      <trkpt lat="45.32046" lon="4.76312">
        <ele>29.46</ele>
        <time>2022-04-25T06:24:26Z</time>
      </trkpt>
      <trkpt lat="45.32054" lon="4.76299">
        <ele>30.42</ele>
        <time>2022-04-25T06:24:43Z</time>
      </trkpt>
      <trkpt lat="45.32056" lon="4.76298">
        <ele>29.94</ele>
        <time>2022-04-25T06:24:45Z</time>
      </trkpt>
      <trkpt lat="45.32063" lon="4.76294">
        <ele>30.42</ele>
        <time>2022-04-25T06:24:51Z</time>
      </trkpt>
      <trkpt lat="45.32066" lon="4.76283">
        <ele>30.42</ele>
        <time>2022-04-25T06:24:56Z</time>
      </trkpt>
      <trkpt lat="45.32075" lon="4.76256">
        <ele>30.42</ele>
        <time>2022-04-25T06:25:11Z</time>
      </trkpt>
      <trkpt lat="45.3208" lon="4.7625">
        <ele>30.42</ele>
        <time>2022-04-25T06:25:15Z</time>
      </trkpt>
      <trkpt lat="45.32097" lon="4.76231">
        <ele>30.9</ele>
        <time>2022-04-25T06:25:32Z</time>
      </trkpt>
      <trkpt lat="45.32112" lon="4.76208">
        <ele>31.86</ele>
        <time>2022-04-25T06:25:49Z</time>
      </trkpt>
      <trkpt lat="45.32124" lon="4.76196">
        <ele>32.82</ele>
        <time>2022-04-25T06:26:04Z</time>
      </trkpt>
      <trkpt lat="45.32113" lon="4.76203">
        <ele>33.3</ele>
        <time>2022-04-25T06:26:22Z</time>
      </trkpt>
      <trkpt lat="45.32108" lon="4.76208">
        <ele>34.26</ele>
        <time>2022-04-25T06:26:29Z</time>
      </trkpt>
      <trkpt lat="45.32098" lon="4.76216">
        <ele>34.74</ele>
        <time>2022-04-25T06:26:45Z</time>
      </trkpt>
      <trkpt lat="45.3209" lon="4.76203">
        <ele>35.71</ele>
        <time>2022-04-25T06:26:56Z</time>
      </trkpt>
      <trkpt lat="45.32084" lon="4.76195">
        <ele>35.71</ele>
        <time>2022-04-25T06:27:02Z</time>
      </trkpt>
      <trkpt lat="45.32101" lon="4.76171">
        <ele>36.67</ele>
        <time>2022-04-25T06:27:20Z</time>
      </trkpt>
      <trkpt lat="45.32116" lon="4.76154">
        <ele>38.11</ele>
        <time>2022-04-25T06:27:36Z</time>
      </trkpt>
      <trkpt lat="45.32125" lon="4.76145">
        <ele>38.59</ele>
        <time>2022-04-25T06:27:45Z</time>
      </trkpt>
      <trkpt lat="45.32132" lon="4.76138">
        <ele>39.07</ele>
        <time>2022-04-25T06:27:50Z</time>
      </trkpt>
      <trkpt lat="45.32149" lon="4.76125">
        <ele>39.55</ele>
        <time>2022-04-25T06:28:06Z</time>
      </trkpt>
      <trkpt lat="45.32156" lon="4.76121">
        <ele>39.55</ele>
        <time>2022-04-25T06:28:12Z</time>
      </trkpt>
      <trkpt lat="45.32173" lon="4.76114">
        <ele>40.03</ele>
        <time>2022-04-25T06:28:26Z</time>
      </trkpt>
      <trkpt lat="45.3219" lon="4.76107">
        <ele>40.99</ele>
        <time>2022-04-25T06:28:41Z</time>
      </trkpt>
      <trkpt lat="45.32193" lon="4.76106">
        <ele>41.47</ele>
        <time>2022-04-25T06:28:43Z</time>
      </trkpt>
      <trkpt lat="45.32211" lon="4.76091">
        <ele>41.95</ele>
        <time>2022-04-25T06:28:58Z</time>
      </trkpt>
      <trkpt lat="45.32224" lon="4.76079">
        <ele>42.44</ele>
        <time>2022-04-25T06:29:11Z</time>
      </trkpt>
      <trkpt lat="45.32236" lon="4.76072">
        <ele>42.92</ele>
        <time>2022-04-25T06:29:20Z</time>
      </trkpt>
      <trkpt lat="45.32258" lon="4.7606">
        <ele>43.4</ele>
        <time>2022-04-25T06:29:37Z</time>
      </trkpt>
      <trkpt lat="45.32272" lon="4.76051">
        <ele>44.36</ele>
        <time>2022-04-25T06:29:46Z</time>
      </trkpt>
      <trkpt lat="45.32289" lon="4.76038">
        <ele>45.32</ele>
        <time>2022-04-25T06:30:01Z</time>
      </trkpt>
      <trkpt lat="45.32311" lon="4.76023">
        <ele>46.76</ele>
        <time>2022-04-25T06:30:20Z</time>
      </trkpt>
      <trkpt lat="45.32332" lon="4.76011">
        <ele>48.2</ele>
        <time>2022-04-25T06:30:37Z</time>
      </trkpt>
      <trkpt lat="45.32353" lon="4.76001">
        <ele>49.16</ele>
        <time>2022-04-25T06:30:55Z</time>
      </trkpt>
      <trkpt lat="45.32371" lon="4.75989">
        <ele>50.61</ele>
        <time>2022-04-25T06:31:10Z</time>
      </trkpt>
      <trkpt lat="45.3239" lon="4.75979">
        <ele>51.09</ele>
        <time>2022-04-25T06:31:27Z</time>
      </trkpt>
      <trkpt lat="45.32414" lon="4.75966">
        <ele>52.53</ele>
        <time>2022-04-25T06:31:44Z</time>
      </trkpt>
      <trkpt lat="45.3243" lon="4.75964">
        <ele>52.05</ele>
        <time>2022-04-25T06:31:57Z</time>
      </trkpt>
      <trkpt lat="45.32433" lon="4.75962">
        <ele>53.01</ele>
        <time>2022-04-25T06:32:00Z</time>
      </trkpt>
      <trkpt lat="45.32445" lon="4.75957">
        <ele>54.45</ele>
        <time>2022-04-25T06:32:14Z</time>
      </trkpt>
      <trkpt lat="45.32464" lon="4.75948">
        <ele>54.93</ele>
        <time>2022-04-25T06:32:31Z</time>
      </trkpt>
      <trkpt lat="45.32484" lon="4.75941">
        <ele>54.93</ele>
        <time>2022-04-25T06:32:46Z</time>
      </trkpt>
      <trkpt lat="45.325" lon="4.75933">
        <ele>56.37</ele>
        <time>2022-04-25T06:32:58Z</time>
      </trkpt>
      <trkpt lat="45.32519" lon="4.75917">
        <ele>56.86</ele>
        <time>2022-04-25T06:33:17Z</time>
      </trkpt>
      <trkpt lat="45.32537" lon="4.75902">
        <ele>58.78</ele>
        <time>2022-04-25T06:33:35Z</time>
      </trkpt>
      <trkpt lat="45.32553" lon="4.75892">
        <ele>58.3</ele>
        <time>2022-04-25T06:33:50Z</time>
      </trkpt>
      <trkpt lat="45.32561" lon="4.7588">
        <ele>59.26</ele>
        <time>2022-04-25T06:33:59Z</time>
      </trkpt>
      <trkpt lat="45.32579" lon="4.75859">
        <ele>60.7</ele>
        <time>2022-04-25T06:34:14Z</time>
      </trkpt>
      <trkpt lat="45.32598" lon="4.75846">
        <ele>61.66</ele>
        <time>2022-04-25T06:34:30Z</time>
      </trkpt>
      <trkpt lat="45.32617" lon="4.75828">
        <ele>62.62</ele>
        <time>2022-04-25T06:34:47Z</time>
      </trkpt>
      <trkpt lat="45.32634" lon="4.75814">
        <ele>63.58</ele>
        <time>2022-04-25T06:35:04Z</time>
      </trkpt>
      <trkpt lat="45.32652" lon="4.75803">
        <ele>64.07</ele>
        <time>2022-04-25T06:35:20Z</time>
      </trkpt>
      <trkpt lat="45.32668" lon="4.75797">
        <ele>64.07</ele>
        <time>2022-04-25T06:35:33Z</time>
      </trkpt>
      <trkpt lat="45.3267" lon="4.75797">
        <ele>64.07</ele>
        <time>2022-04-25T06:35:34Z</time>
      </trkpt>
      <trkpt lat="45.32685" lon="4.7579">
        <ele>64.55</ele>
        <time>2022-04-25T06:35:52Z</time>
      </trkpt>
      <trkpt lat="45.32708" lon="4.75775">
        <ele>65.99</ele>
        <time>2022-04-25T06:36:12Z</time>
      </trkpt>
      <trkpt lat="45.32721" lon="4.75769">
        <ele>65.99</ele>
        <time>2022-04-25T06:36:22Z</time>
      </trkpt>
      <trkpt lat="45.32741" lon="4.7575">
        <ele>67.43</ele>
        <time>2022-04-25T06:36:31Z</time>
      </trkpt>
      <trkpt lat="45.32767" lon="4.75732">
        <ele>67.43</ele>
        <time>2022-04-25T06:36:51Z</time>
      </trkpt>
      <trkpt lat="45.32776" lon="4.75728">
        <ele>67.43</ele>
        <time>2022-04-25T06:36:56Z</time>
      </trkpt>
      <trkpt lat="45.32779" lon="4.75736">
        <ele>66.47</ele>
        <time>2022-04-25T06:37:09Z</time>
      </trkpt>
      <trkpt lat="45.32779" lon="4.75737">
        <ele>66.95</ele>
        <time>2022-04-25T06:37:11Z</time>
      </trkpt>
      <trkpt lat="45.32782" lon="4.7575">
        <ele>65.51</ele>
        <time>2022-04-25T06:37:20Z</time>
      </trkpt>
      <trkpt lat="45.32783" lon="4.75757">
        <ele>65.51</ele>
        <time>2022-04-25T06:37:24Z</time>
      </trkpt>
      <trkpt lat="45.32785" lon="4.75757">
        <ele>65.99</ele>
        <time>2022-04-25T06:37:39Z</time>
      </trkpt>
      <trkpt lat="45.32785" lon="4.75753">
        <ele>66.47</ele>
        <time>2022-04-25T06:37:42Z</time>
      </trkpt>
      <trkpt lat="45.32782" lon="4.7574">
        <ele>67.43</ele>
        <time>2022-04-25T06:37:50Z</time>
      </trkpt>
      <trkpt lat="45.3278" lon="4.75735">
        <ele>68.87</ele>
        <time>2022-04-25T06:37:54Z</time>
      </trkpt>
      <trkpt lat="45.32784" lon="4.75728">
        <ele>69.83</ele>
        <time>2022-04-25T06:38:04Z</time>
      </trkpt>
      <trkpt lat="45.32808" lon="4.75723">
        <ele>70.79</ele>
        <time>2022-04-25T06:38:23Z</time>
      </trkpt>
      <trkpt lat="45.32831" lon="4.75724">
        <ele>70.79</ele>
        <time>2022-04-25T06:38:41Z</time>
      </trkpt>
      <trkpt lat="45.32852" lon="4.75725">
        <ele>71.27</ele>
        <time>2022-04-25T06:38:57Z</time>
      </trkpt>
      <trkpt lat="45.32875" lon="4.75726">
        <ele>73.2</ele>
        <time>2022-04-25T06:39:15Z</time>
      </trkpt>
      <trkpt lat="45.32896" lon="4.75729">
        <ele>73.2</ele>
        <time>2022-04-25T06:39:31Z</time>
      </trkpt>
      <trkpt lat="45.32922" lon="4.7573">
        <ele>74.16</ele>
        <time>2022-04-25T06:39:51Z</time>
      </trkpt>
      <trkpt lat="45.32944" lon="4.7573">
        <ele>74.64</ele>
        <time>2022-04-25T06:40:07Z</time>
      </trkpt>
      <trkpt lat="45.32965" lon="4.75732">
        <ele>75.12</ele>
        <time>2022-04-25T06:40:23Z</time>
      </trkpt>
      <trkpt lat="45.32989" lon="4.75729">
        <ele>75.6</ele>
        <time>2022-04-25T06:40:40Z</time>
      </trkpt>
      <trkpt lat="45.33013" lon="4.75733">
        <ele>76.56</ele>
        <time>2022-04-25T06:40:58Z</time>
      </trkpt>
      <trkpt lat="45.33034" lon="4.75734">
        <ele>77.52</ele>
        <time>2022-04-25T06:41:14Z</time>
      </trkpt>
      <trkpt lat="45.33055" lon="4.75737">
        <ele>78</ele>
        <time>2022-04-25T06:41:30Z</time>
      </trkpt>
      <trkpt lat="45.33083" lon="4.75737">
        <ele>78.97</ele>
        <time>2022-04-25T06:41:51Z</time>
      </trkpt>
      <trkpt lat="45.33104" lon="4.75741">
        <ele>79.93</ele>
        <time>2022-04-25T06:42:08Z</time>
      </trkpt>
      <trkpt lat="45.33122" lon="4.75744">
        <ele>79.93</ele>
        <time>2022-04-25T06:42:21Z</time>
      </trkpt>
      <trkpt lat="45.33144" lon="4.75745">
        <ele>81.37</ele>
        <time>2022-04-25T06:42:37Z</time>
      </trkpt>
      <trkpt lat="45.33162" lon="4.75746">
        <ele>81.85</ele>
        <time>2022-04-25T06:42:52Z</time>
      </trkpt>
      <trkpt lat="45.33184" lon="4.75747">
        <ele>82.81</ele>
        <time>2022-04-25T06:43:08Z</time>
      </trkpt>
      <trkpt lat="45.33205" lon="4.75749">
        <ele>83.29</ele>
        <time>2022-04-25T06:43:24Z</time>
      </trkpt>
      <trkpt lat="45.33211" lon="4.75749">
        <ele>83.29</ele>
        <time>2022-04-25T06:43:28Z</time>
      </trkpt>
      <trkpt lat="45.3323" lon="4.75748">
        <ele>83.77</ele>
        <time>2022-04-25T06:43:43Z</time>
      </trkpt>
      <trkpt lat="45.33253" lon="4.75751">
        <ele>84.25</ele>
        <time>2022-04-25T06:44:01Z</time>
      </trkpt>
      <trkpt lat="45.33271" lon="4.7575">
        <ele>85.21</ele>
        <time>2022-04-25T06:44:14Z</time>
      </trkpt>
      <trkpt lat="45.3329" lon="4.7575">
        <ele>85.21</ele>
        <time>2022-04-25T06:44:30Z</time>
      </trkpt>
      <trkpt lat="45.33304" lon="4.75751">
        <ele>85.21</ele>
        <time>2022-04-25T06:44:41Z</time>
      </trkpt>
      <trkpt lat="45.33324" lon="4.75751">
        <ele>86.18</ele>
        <time>2022-04-25T06:44:57Z</time>
      </trkpt>
      <trkpt lat="45.33345" lon="4.75748">
        <ele>86.18</ele>
        <time>2022-04-25T06:45:13Z</time>
      </trkpt>
      <trkpt lat="45.33351" lon="4.75748">
        <ele>86.18</ele>
        <time>2022-04-25T06:45:19Z</time>
      </trkpt>
      <trkpt lat="45.33378" lon="4.75751">
        <ele>86.66</ele>
        <time>2022-04-25T06:45:36Z</time>
      </trkpt>
      <trkpt lat="45.33405" lon="4.75753">
        <ele>87.14</ele>
        <time>2022-04-25T06:45:54Z</time>
      </trkpt>
      <trkpt lat="45.3341" lon="4.7575">
        <ele>87.14</ele>
        <time>2022-04-25T06:45:58Z</time>
      </trkpt>
      <trkpt lat="45.33432" lon="4.75751">
        <ele>87.14</ele>
        <time>2022-04-25T06:46:16Z</time>
      </trkpt>
      <trkpt lat="45.33447" lon="4.75751">
        <ele>87.14</ele>
        <time>2022-04-25T06:46:27Z</time>
      </trkpt>
      <trkpt lat="45.33453" lon="4.75751">
        <ele>87.14</ele>
        <time>2022-04-25T06:46:31Z</time>
      </trkpt>
      <trkpt lat="45.33474" lon="4.75749">
        <ele>87.62</ele>
        <time>2022-04-25T06:46:48Z</time>
      </trkpt>
      <trkpt lat="45.33494" lon="4.75751">
        <ele>87.62</ele>
        <time>2022-04-25T06:47:04Z</time>
      </trkpt>
      <trkpt lat="45.33521" lon="4.75753">
        <ele>88.1</ele>
        <time>2022-04-25T06:47:21Z</time>
      </trkpt>
      <trkpt lat="45.33531" lon="4.75771">
        <ele>87.62</ele>
        <time>2022-04-25T06:47:39Z</time>
      </trkpt>
      <trkpt lat="45.33528" lon="4.75807">
        <ele>87.14</ele>
        <time>2022-04-25T06:47:57Z</time>
      </trkpt>
      <trkpt lat="45.33531" lon="4.75814">
        <ele>87.62</ele>
        <time>2022-04-25T06:48:05Z</time>
      </trkpt>
      <trkpt lat="45.33535" lon="4.75816">
        <ele>87.62</ele>
        <time>2022-04-25T06:48:09Z</time>
      </trkpt>
      <trkpt lat="45.3355" lon="4.75819">
        <ele>87.62</ele>
        <time>2022-04-25T06:48:24Z</time>
      </trkpt>
      <trkpt lat="45.33565" lon="4.75823">
        <ele>88.1</ele>
        <time>2022-04-25T06:48:35Z</time>
      </trkpt>
      <trkpt lat="45.33579" lon="4.7583">
        <ele>88.1</ele>
        <time>2022-04-25T06:48:48Z</time>
      </trkpt>
      <trkpt lat="45.33593" lon="4.75836">
        <ele>88.58</ele>
        <time>2022-04-25T06:49:02Z</time>
      </trkpt>
      <trkpt lat="45.33608" lon="4.75844">
        <ele>88.58</ele>
        <time>2022-04-25T06:49:15Z</time>
      </trkpt>
      <trkpt lat="45.33628" lon="4.75853">
        <ele>89.06</ele>
        <time>2022-04-25T06:49:33Z</time>
      </trkpt>
      <trkpt lat="45.33644" lon="4.75855">
        <ele>89.54</ele>
        <time>2022-04-25T06:49:50Z</time>
      </trkpt>
      <trkpt lat="45.33663" lon="4.75872">
        <ele>89.54</ele>
        <time>2022-04-25T06:50:10Z</time>
      </trkpt>
      <trkpt lat="45.33679" lon="4.75888">
        <ele>89.54</ele>
        <time>2022-04-25T06:50:29Z</time>
      </trkpt>
      <trkpt lat="45.33698" lon="4.75905">
        <ele>89.54</ele>
        <time>2022-04-25T06:50:48Z</time>
      </trkpt>
      <trkpt lat="45.33723" lon="4.75917">
        <ele>90.02</ele>
        <time>2022-04-25T06:51:08Z</time>
      </trkpt>
      <trkpt lat="45.33743" lon="4.75931">
        <ele>90.02</ele>
        <time>2022-04-25T06:51:29Z</time>
      </trkpt>
      <trkpt lat="45.33757" lon="4.7594">
        <ele>91.46</ele>
        <time>2022-04-25T06:51:45Z</time>
      </trkpt>
      <trkpt lat="45.3377" lon="4.75952">
        <ele>90.98</ele>
        <time>2022-04-25T06:52:03Z</time>
      </trkpt>
      <trkpt lat="45.33786" lon="4.75965">
        <ele>91.94</ele>
        <time>2022-04-25T06:52:22Z</time>
      </trkpt>
      <trkpt lat="45.33801" lon="4.7597">
        <ele>91.46</ele>
        <time>2022-04-25T06:52:39Z</time>
      </trkpt>
      <trkpt lat="45.33816" lon="4.7598">
        <ele>91.94</ele>
        <time>2022-04-25T06:52:55Z</time>
      </trkpt>
      <trkpt lat="45.33839" lon="4.75986">
        <ele>91.94</ele>
        <time>2022-04-25T06:53:12Z</time>
      </trkpt>
      <trkpt lat="45.33868" lon="4.7599">
        <ele>92.9</ele>
        <time>2022-04-25T06:53:32Z</time>
      </trkpt>
      <trkpt lat="45.33913" lon="4.75974">
        <ele>92.9</ele>
        <time>2022-04-25T06:53:49Z</time>
      </trkpt>
      <trkpt lat="45.33951" lon="4.75968">
        <ele>92.9</ele>
        <time>2022-04-25T06:54:09Z</time>
      </trkpt>
      <trkpt lat="45.33973" lon="4.75967">
        <ele>93.87</ele>
        <time>2022-04-25T06:54:26Z</time>
      </trkpt>
      <trkpt lat="45.33992" lon="4.7596">
        <ele>93.87</ele>
        <time>2022-04-25T06:54:41Z</time>
      </trkpt>
      <trkpt lat="45.34009" lon="4.75953">
        <ele>94.35</ele>
        <time>2022-04-25T06:54:57Z</time>
      </trkpt>
      <trkpt lat="45.34031" lon="4.75939">
        <ele>94.35</ele>
        <time>2022-04-25T06:55:15Z</time>
      </trkpt>
      <trkpt lat="45.34048" lon="4.75934">
        <ele>95.31</ele>
        <time>2022-04-25T06:55:30Z</time>
      </trkpt>
      <trkpt lat="45.34054" lon="4.75936">
        <ele>95.31</ele>
        <time>2022-04-25T06:55:35Z</time>
      </trkpt>
      <trkpt lat="45.34074" lon="4.75941">
        <ele>95.31</ele>
        <time>2022-04-25T06:55:53Z</time>
      </trkpt>
      <trkpt lat="45.34088" lon="4.7595">
        <ele>95.79</ele>
        <time>2022-04-25T06:56:11Z</time>
      </trkpt>
      <trkpt lat="45.34107" lon="4.75958">
        <ele>97.23</ele>
        <time>2022-04-25T06:56:27Z</time>
      </trkpt>
      <trkpt lat="45.34135" lon="4.75963">
        <ele>96.27</ele>
        <time>2022-04-25T06:56:42Z</time>
      </trkpt>
      <trkpt lat="45.34154" lon="4.75968">
        <ele>97.71</ele>
        <time>2022-04-25T06:56:58Z</time>
      </trkpt>
      <trkpt lat="45.34173" lon="4.75966">
        <ele>97.23</ele>
        <time>2022-04-25T06:57:15Z</time>
      </trkpt>
      <trkpt lat="45.34196" lon="4.75966">
        <ele>97.71</ele>
        <time>2022-04-25T06:57:31Z</time>
      </trkpt>
      <trkpt lat="45.34215" lon="4.75967">
        <ele>98.67</ele>
        <time>2022-04-25T06:57:48Z</time>
      </trkpt>
      <trkpt lat="45.34231" lon="4.75965">
        <ele>99.63</ele>
        <time>2022-04-25T06:58:05Z</time>
      </trkpt>
      <trkpt lat="45.34238" lon="4.75967">
        <ele>99.15</ele>
        <time>2022-04-25T06:58:24Z</time>
      </trkpt>
      <trkpt lat="45.34243" lon="4.75965">
        <ele>100.11</ele>
        <time>2022-04-25T06:58:44Z</time>
      </trkpt>
      <trkpt lat="45.3426" lon="4.7597">
        <ele>99.63</ele>
        <time>2022-04-25T06:58:59Z</time>
      </trkpt>
      <trkpt lat="45.34272" lon="4.75975">
        <ele>100.6</ele>
        <time>2022-04-25T06:59:14Z</time>
      </trkpt>
      <trkpt lat="45.34282" lon="4.75975">
        <ele>101.08</ele>
        <time>2022-04-25T06:59:23Z</time>
      </trkpt>
      <trkpt lat="45.34305" lon="4.75975">
        <ele>101.56</ele>
        <time>2022-04-25T06:59:39Z</time>
      </trkpt>
      <trkpt lat="45.34328" lon="4.75983">
        <ele>102.52</ele>
        <time>2022-04-25T06:59:57Z</time>
      </trkpt>
      <trkpt lat="45.3435" lon="4.75986">
        <ele>102.04</ele>
        <time>2022-04-25T07:00:13Z</time>
      </trkpt>
      <trkpt lat="45.34372" lon="4.75991">
        <ele>102.52</ele>
        <time>2022-04-25T07:00:29Z</time>
      </trkpt>
      <trkpt lat="45.34388" lon="4.75992">
        <ele>103</ele>
        <time>2022-04-25T07:00:46Z</time>
      </trkpt>
      <trkpt lat="45.34404" lon="4.75993">
        <ele>103</ele>
        <time>2022-04-25T07:01:03Z</time>
      </trkpt>
      <trkpt lat="45.34418" lon="4.75969">
        <ele>103</ele>
        <time>2022-04-25T07:01:20Z</time>
      </trkpt>
      <trkpt lat="45.34431" lon="4.75966">
        <ele>103.96</ele>
        <time>2022-04-25T07:01:38Z</time>
      </trkpt>
      <trkpt lat="45.34436" lon="4.75983">
        <ele>103.96</ele>
        <time>2022-04-25T07:01:54Z</time>
      </trkpt>
      <trkpt lat="45.34451" lon="4.75993">
        <ele>104.44</ele>
        <time>2022-04-25T07:02:10Z</time>
      </trkpt>
      <trkpt lat="45.3447" lon="4.75987">
        <ele>105.88</ele>
        <time>2022-04-25T07:02:26Z</time>
      </trkpt>
      <trkpt lat="45.34495" lon="4.75978">
        <ele>106.84</ele>
        <time>2022-04-25T07:02:42Z</time>
      </trkpt>
      <trkpt lat="45.34518" lon="4.75971">
        <ele>106.36</ele>
        <time>2022-04-25T07:03:00Z</time>
      </trkpt>
      <trkpt lat="45.34538" lon="4.75964">
        <ele>106.84</ele>
        <time>2022-04-25T07:03:16Z</time>
      </trkpt>
      <trkpt lat="45.34561" lon="4.75964">
        <ele>107.81</ele>
        <time>2022-04-25T07:03:35Z</time>
      </trkpt>
      <trkpt lat="45.34576" lon="4.75963">
        <ele>107.32</ele>
        <time>2022-04-25T07:03:46Z</time>
      </trkpt>
      <trkpt lat="45.34597" lon="4.75962">
        <ele>107.32</ele>
        <time>2022-04-25T07:04:02Z</time>
      </trkpt>
      <trkpt lat="45.34621" lon="4.75963">
        <ele>107.81</ele>
        <time>2022-04-25T07:04:20Z</time>
      </trkpt>
      <trkpt lat="45.34629" lon="4.75964">
        <ele>108.29</ele>
        <time>2022-04-25T07:04:26Z</time>
      </trkpt>
      <trkpt lat="45.34647" lon="4.75962">
        <ele>108.29</ele>
        <time>2022-04-25T07:04:41Z</time>
      </trkpt>
      <trkpt lat="45.34665" lon="4.75965">
        <ele>108.29</ele>
        <time>2022-04-25T07:04:56Z</time>
      </trkpt>
      <trkpt lat="45.3469" lon="4.75962">
        <ele>109.25</ele>
        <time>2022-04-25T07:05:13Z</time>
      </trkpt>
      <trkpt lat="45.3471" lon="4.75954">
        <ele>109.25</ele>
        <time>2022-04-25T07:05:30Z</time>
      </trkpt>
      <trkpt lat="45.34731" lon="4.75948">
        <ele>109.73</ele>
        <time>2022-04-25T07:05:47Z</time>
      </trkpt>
      <trkpt lat="45.34753" lon="4.75943">
        <ele>110.69</ele>
        <time>2022-04-25T07:06:05Z</time>
      </trkpt>
      <trkpt lat="45.34777" lon="4.75934">
        <ele>110.69</ele>
        <time>2022-04-25T07:06:23Z</time>
      </trkpt>
      <trkpt lat="45.348" lon="4.75927">
        <ele>110.69</ele>
        <time>2022-04-25T07:06:41Z</time>
      </trkpt>
      <trkpt lat="45.3482" lon="4.7592">
        <ele>111.65</ele>
        <time>2022-04-25T07:06:57Z</time>
      </trkpt>
      <trkpt lat="45.34843" lon="4.75917">
        <ele>111.17</ele>
        <time>2022-04-25T07:07:15Z</time>
      </trkpt>
      <trkpt lat="45.34864" lon="4.75915">
        <ele>112.13</ele>
        <time>2022-04-25T07:07:32Z</time>
      </trkpt>
      <trkpt lat="45.34878" lon="4.75912">
        <ele>112.13</ele>
        <time>2022-04-25T07:07:43Z</time>
      </trkpt>
      <trkpt lat="45.34904" lon="4.75906">
        <ele>112.61</ele>
        <time>2022-04-25T07:08:02Z</time>
      </trkpt>
      <trkpt lat="45.34908" lon="4.75905">
        <ele>113.09</ele>
        <time>2022-04-25T07:08:05Z</time>
      </trkpt>
      <trkpt lat="45.34932" lon="4.75902">
        <ele>113.57</ele>
        <time>2022-04-25T07:08:24Z</time>
      </trkpt>
      <trkpt lat="45.34951" lon="4.75901">
        <ele>113.57</ele>
        <time>2022-04-25T07:08:40Z</time>
      </trkpt>
      <trkpt lat="45.34972" lon="4.75903">
        <ele>113.57</ele>
        <time>2022-04-25T07:08:56Z</time>
      </trkpt>
      <trkpt lat="45.34995" lon="4.75911">
        <ele>113.57</ele>
        <time>2022-04-25T07:09:14Z</time>
      </trkpt>
      <trkpt lat="45.35006" lon="4.75916">
        <ele>114.05</ele>
        <time>2022-04-25T07:09:23Z</time>
      </trkpt>
      <trkpt lat="45.35025" lon="4.75921">
        <ele>114.05</ele>
        <time>2022-04-25T07:09:41Z</time>
      </trkpt>
      <trkpt lat="45.35031" lon="4.75924">
        <ele>114.53</ele>
        <time>2022-04-25T07:09:48Z</time>
      </trkpt>
      <trkpt lat="45.35054" lon="4.75935">
        <ele>114.53</ele>
        <time>2022-04-25T07:10:06Z</time>
      </trkpt>
      <trkpt lat="45.35075" lon="4.75948">
        <ele>115.01</ele>
        <time>2022-04-25T07:10:24Z</time>
      </trkpt>
      <trkpt lat="45.35093" lon="4.75959">
        <ele>115.5</ele>
        <time>2022-04-25T07:10:41Z</time>
      </trkpt>
      <trkpt lat="45.35102" lon="4.75958">
        <ele>115.5</ele>
        <time>2022-04-25T07:10:49Z</time>
      </trkpt>
      <trkpt lat="45.35105" lon="4.75956">
        <ele>115.98</ele>
        <time>2022-04-25T07:10:53Z</time>
      </trkpt>
      <trkpt lat="45.35127" lon="4.75925">
        <ele>116.46</ele>
        <time>2022-04-25T07:11:13Z</time>
      </trkpt>
      <trkpt lat="45.35133" lon="4.75917">
        <ele>115.98</ele>
        <time>2022-04-25T07:11:21Z</time>
      </trkpt>
      <trkpt lat="45.3514" lon="4.75894">
        <ele>116.46</ele>
        <time>2022-04-25T07:11:35Z</time>
      </trkpt>
      <trkpt lat="45.35153" lon="4.75884">
        <ele>117.9</ele>
        <time>2022-04-25T07:11:50Z</time>
      </trkpt>
      <trkpt lat="45.35158" lon="4.75854">
        <ele>117.9</ele>
        <time>2022-04-25T07:12:10Z</time>
      </trkpt>
      <trkpt lat="45.35162" lon="4.75853">
        <ele>118.38</ele>
        <time>2022-04-25T07:12:32Z</time>
      </trkpt>
      <trkpt lat="45.3516" lon="4.75843">
        <ele>118.38</ele>
        <time>2022-04-25T07:12:58Z</time>
      </trkpt>
      <trkpt lat="45.35158" lon="4.75831">
        <ele>118.86</ele>
        <time>2022-04-25T07:13:18Z</time>
      </trkpt>
      <trkpt lat="45.35159" lon="4.75835">
        <ele>118.86</ele>
        <time>2022-04-25T07:13:57Z</time>
      </trkpt>
      <trkpt lat="45.3516" lon="4.75838">
        <ele>119.34</ele>
        <time>2022-04-25T07:14:25Z</time>
      </trkpt>
      <trkpt lat="45.35158" lon="4.75836">
        <ele>119.82</ele>
        <time>2022-04-25T07:14:38Z</time>
      </trkpt>
      <trkpt lat="45.35162" lon="4.75826">
        <ele>120.3</ele>
        <time>2022-04-25T07:14:54Z</time>
      </trkpt>
      <trkpt lat="45.35179" lon="4.75823">
        <ele>121.26</ele>
        <time>2022-04-25T07:15:08Z</time>
      </trkpt>
      <trkpt lat="45.35187" lon="4.75823">
        <ele>121.74</ele>
        <time>2022-04-25T07:15:24Z</time>
      </trkpt>
      <trkpt lat="45.35203" lon="4.75797">
        <ele>122.22</ele>
        <time>2022-04-25T07:15:42Z</time>
      </trkpt>
      <trkpt lat="45.35204" lon="4.75796">
        <ele>122.71</ele>
        <time>2022-04-25T07:15:43Z</time>
      </trkpt>
      <trkpt lat="45.35204" lon="4.75771">
        <ele>123.19</ele>
        <time>2022-04-25T07:15:59Z</time>
      </trkpt>
      <trkpt lat="45.35212" lon="4.75757">
        <ele>123.19</ele>
        <time>2022-04-25T07:16:13Z</time>
      </trkpt>
      <trkpt lat="45.35217" lon="4.75732">
        <ele>123.67</ele>
        <time>2022-04-25T07:16:32Z</time>
      </trkpt>
      <trkpt lat="45.35225" lon="4.75718">
        <ele>125.11</ele>
        <time>2022-04-25T07:16:48Z</time>
      </trkpt>
      <trkpt lat="45.35227" lon="4.7568">
        <ele>127.99</ele>
        <time>2022-04-25T07:17:07Z</time>
      </trkpt>
      <trkpt lat="45.35215" lon="4.75661">
        <ele>130.4</ele>
        <time>2022-04-25T07:17:24Z</time>
      </trkpt>
      <trkpt lat="45.3521" lon="4.75633">
        <ele>131.36</ele>
        <time>2022-04-25T07:17:41Z</time>
      </trkpt>
      <trkpt lat="45.35211" lon="4.75617">
        <ele>132.32</ele>
        <time>2022-04-25T07:17:57Z</time>
      </trkpt>
      <trkpt lat="45.35213" lon="4.75608">
        <ele>132.32</ele>
        <time>2022-04-25T07:18:08Z</time>
      </trkpt>
      <trkpt lat="45.35203" lon="4.75583">
        <ele>132.8</ele>
        <time>2022-04-25T07:18:26Z</time>
      </trkpt>
      <trkpt lat="45.35194" lon="4.75552">
        <ele>133.76</ele>
        <time>2022-04-25T07:18:43Z</time>
      </trkpt>
      <trkpt lat="45.35187" lon="4.75523">
        <ele>134.24</ele>
        <time>2022-04-25T07:19:02Z</time>
      </trkpt>
      <trkpt lat="45.35186" lon="4.75516">
        <ele>134.24</ele>
        <time>2022-04-25T07:19:06Z</time>
      </trkpt>
      <trkpt lat="45.35185" lon="4.75476">
        <ele>134.72</ele>
        <time>2022-04-25T07:19:23Z</time>
      </trkpt>
      <trkpt lat="45.35182" lon="4.75447">
        <ele>134.72</ele>
        <time>2022-04-25T07:19:40Z</time>
      </trkpt>
      <trkpt lat="45.35178" lon="4.75437">
        <ele>134.24</ele>
        <time>2022-04-25T07:19:49Z</time>
      </trkpt>
      <trkpt lat="45.35173" lon="4.7543">
        <ele>134.72</ele>
        <time>2022-04-25T07:19:56Z</time>
      </trkpt>
      <trkpt lat="45.35165" lon="4.75395">
        <ele>134.72</ele>
        <time>2022-04-25T07:20:13Z</time>
      </trkpt>
      <trkpt lat="45.35156" lon="4.75363">
        <ele>135.68</ele>
        <time>2022-04-25T07:20:32Z</time>
      </trkpt>
      <trkpt lat="45.35151" lon="4.75336">
        <ele>137.61</ele>
        <time>2022-04-25T07:20:48Z</time>
      </trkpt>
      <trkpt lat="45.35143" lon="4.75312">
        <ele>139.05</ele>
        <time>2022-04-25T07:21:04Z</time>
      </trkpt>
      <trkpt lat="45.3513" lon="4.7529">
        <ele>140.49</ele>
        <time>2022-04-25T07:21:20Z</time>
      </trkpt>
      <trkpt lat="45.35119" lon="4.75269">
        <ele>141.45</ele>
        <time>2022-04-25T07:21:36Z</time>
      </trkpt>
      <trkpt lat="45.35112" lon="4.7525">
        <ele>141.93</ele>
        <time>2022-04-25T07:21:48Z</time>
      </trkpt>
      <trkpt lat="45.35102" lon="4.75221">
        <ele>143.37</ele>
        <time>2022-04-25T07:22:05Z</time>
      </trkpt>
      <trkpt lat="45.35098" lon="4.75189">
        <ele>143.85</ele>
        <time>2022-04-25T07:22:23Z</time>
      </trkpt>
      <trkpt lat="45.35098" lon="4.75155">
        <ele>145.3</ele>
        <time>2022-04-25T07:22:41Z</time>
      </trkpt>
      <trkpt lat="45.35099" lon="4.7514">
        <ele>145.78</ele>
        <time>2022-04-25T07:22:56Z</time>
      </trkpt>
      <trkpt lat="45.35102" lon="4.75129">
        <ele>144.34</ele>
        <time>2022-04-25T07:23:03Z</time>
      </trkpt>
      <trkpt lat="45.35111" lon="4.75091">
        <ele>143.37</ele>
        <time>2022-04-25T07:23:22Z</time>
      </trkpt>
      <trkpt lat="45.35117" lon="4.75078">
        <ele>142.41</ele>
        <time>2022-04-25T07:23:32Z</time>
      </trkpt>
      <trkpt lat="45.35117" lon="4.75047">
        <ele>141.93</ele>
        <time>2022-04-25T07:23:49Z</time>
      </trkpt>
      <trkpt lat="45.35122" lon="4.75017">
        <ele>142.89</ele>
        <time>2022-04-25T07:24:06Z</time>
      </trkpt>
      <trkpt lat="45.35122" lon="4.75017">
        <ele>142.41</ele>
        <time>2022-04-25T07:24:20Z</time>
      </trkpt>
      <trkpt lat="45.35125" lon="4.75016">
        <ele>143.37</ele>
        <time>2022-04-25T07:24:47Z</time>
      </trkpt>
      <trkpt lat="45.35123" lon="4.75013">
        <ele>142.89</ele>
        <time>2022-04-25T07:25:10Z</time>
      </trkpt>
      <trkpt lat="45.35124" lon="4.75023">
        <ele>143.85</ele>
        <time>2022-04-25T07:25:41Z</time>
      </trkpt>
      <trkpt lat="45.35124" lon="4.75022">
        <ele>143.85</ele>
        <time>2022-04-25T07:26:11Z</time>
      </trkpt>
      <trkpt lat="45.35134" lon="4.75019">
        <ele>143.85</ele>
        <time>2022-04-25T07:26:40Z</time>
      </trkpt>
      <trkpt lat="45.35134" lon="4.75015">
        <ele>144.34</ele>
        <time>2022-04-25T07:26:51Z</time>
      </trkpt>
      <trkpt lat="45.35131" lon="4.75013">
        <ele>145.3</ele>
        <time>2022-04-25T07:27:16Z</time>
      </trkpt>
      <trkpt lat="45.35131" lon="4.75014">
        <ele>145.3</ele>
        <time>2022-04-25T07:27:34Z</time>
      </trkpt>
      <trkpt lat="45.35147" lon="4.75007">
        <ele>144.34</ele>
        <time>2022-04-25T07:27:50Z</time>
      </trkpt>
      <trkpt lat="45.35158" lon="4.7498">
        <ele>144.34</ele>
        <time>2022-04-25T07:28:09Z</time>
      </trkpt>
      <trkpt lat="45.35161" lon="4.74972">
        <ele>144.34</ele>
        <time>2022-04-25T07:28:13Z</time>
      </trkpt>
      <trkpt lat="45.35171" lon="4.74936">
        <ele>144.82</ele>
        <time>2022-04-25T07:28:32Z</time>
      </trkpt>
      <trkpt lat="45.35174" lon="4.74919">
        <ele>145.3</ele>
        <time>2022-04-25T07:28:46Z</time>
      </trkpt>
      <trkpt lat="45.35184" lon="4.74902">
        <ele>145.3</ele>
        <time>2022-04-25T07:29:01Z</time>
      </trkpt>
      <trkpt lat="45.35192" lon="4.74885">
        <ele>144.34</ele>
        <time>2022-04-25T07:29:17Z</time>
      </trkpt>
      <trkpt lat="45.35188" lon="4.74874">
        <ele>144.34</ele>
        <time>2022-04-25T07:29:37Z</time>
      </trkpt>
      <trkpt lat="45.35185" lon="4.74872">
        <ele>144.82</ele>
        <time>2022-04-25T07:30:01Z</time>
      </trkpt>
      <trkpt lat="45.35187" lon="4.74873">
        <ele>144.34</ele>
        <time>2022-04-25T07:30:10Z</time>
      </trkpt>
      <trkpt lat="45.35194" lon="4.74851">
        <ele>144.82</ele>
        <time>2022-04-25T07:30:27Z</time>
      </trkpt>
      <trkpt lat="45.35202" lon="4.74831">
        <ele>145.78</ele>
        <time>2022-04-25T07:30:44Z</time>
      </trkpt>
      <trkpt lat="45.3522" lon="4.74808">
        <ele>145.78</ele>
        <time>2022-04-25T07:30:59Z</time>
      </trkpt>
      <trkpt lat="45.35219" lon="4.7479">
        <ele>145.78</ele>
        <time>2022-04-25T07:31:11Z</time>
      </trkpt>
      <trkpt lat="45.35219" lon="4.74779">
        <ele>145.78</ele>
        <time>2022-04-25T07:31:17Z</time>
      </trkpt>
      <trkpt lat="45.35214" lon="4.74752">
        <ele>144.82</ele>
        <time>2022-04-25T07:31:32Z</time>
      </trkpt>
      <trkpt lat="45.35203" lon="4.74736">
        <ele>144.34</ele>
        <time>2022-04-25T07:31:46Z</time>
      </trkpt>
      <trkpt lat="45.35195" lon="4.74718">
        <ele>142.89</ele>
        <time>2022-04-25T07:31:59Z</time>
      </trkpt>
      <trkpt lat="45.35198" lon="4.74702">
        <ele>142.89</ele>
        <time>2022-04-25T07:32:08Z</time>
      </trkpt>
      <trkpt lat="45.35208" lon="4.74675">
        <ele>142.89</ele>
        <time>2022-04-25T07:32:25Z</time>
      </trkpt>
      <trkpt lat="45.3522" lon="4.74655">
        <ele>142.41</ele>
        <time>2022-04-25T07:32:40Z</time>
      </trkpt>
      <trkpt lat="45.3523" lon="4.74633">
        <ele>142.41</ele>
        <time>2022-04-25T07:32:55Z</time>
      </trkpt>
      <trkpt lat="45.3524" lon="4.74618">
        <ele>142.41</ele>
        <time>2022-04-25T07:33:07Z</time>
      </trkpt>
      <trkpt lat="45.35243" lon="4.74609">
        <ele>142.41</ele>
        <time>2022-04-25T07:33:20Z</time>
      </trkpt>
      <trkpt lat="45.3525" lon="4.74599">
        <ele>142.89</ele>
        <time>2022-04-25T07:33:35Z</time>
      </trkpt>
      <trkpt lat="45.35253" lon="4.74586">
        <ele>142.89</ele>
        <time>2022-04-25T07:33:48Z</time>
      </trkpt>
      <trkpt lat="45.3526" lon="4.74566">
        <ele>142.41</ele>
        <time>2022-04-25T07:34:01Z</time>
      </trkpt>
      <trkpt lat="45.35268" lon="4.74539">
        <ele>142.89</ele>
        <time>2022-04-25T07:34:14Z</time>
      </trkpt>
      <trkpt lat="45.35273" lon="4.74521">
        <ele>142.89</ele>
        <time>2022-04-25T07:34:26Z</time>
      </trkpt>
      <trkpt lat="45.35276" lon="4.7452">
        <ele>142.89</ele>
        <time>2022-04-25T07:34:42Z</time>
      </trkpt>
      <trkpt lat="45.35275" lon="4.74512">
        <ele>142.89</ele>
        <time>2022-04-25T07:35:06Z</time>
      </trkpt>
      <trkpt lat="45.35274" lon="4.74506">
        <ele>142.89</ele>
        <time>2022-04-25T07:35:10Z</time>
      </trkpt>
      <trkpt lat="45.35274" lon="4.74503">
        <ele>143.37</ele>
        <time>2022-04-25T07:35:11Z</time>
      </trkpt>
      <trkpt lat="45.35274" lon="4.74493">
        <ele>143.37</ele>
        <time>2022-04-25T07:35:17Z</time>
      </trkpt>
      <trkpt lat="45.3528" lon="4.74466">
        <ele>144.34</ele>
        <time>2022-04-25T07:35:33Z</time>
      </trkpt>
      <trkpt lat="45.35283" lon="4.74438">
        <ele>145.3</ele>
        <time>2022-04-25T07:35:50Z</time>
      </trkpt>
      <trkpt lat="45.3528" lon="4.74426">
        <ele>145.78</ele>
        <time>2022-04-25T07:35:57Z</time>
      </trkpt>
      <trkpt lat="45.35279" lon="4.74421">
        <ele>146.26</ele>
        <time>2022-04-25T07:36:01Z</time>
      </trkpt>
      <trkpt lat="45.35289" lon="4.74398">
        <ele>148.66</ele>
        <time>2022-04-25T07:36:15Z</time>
      </trkpt>
      <trkpt lat="45.35296" lon="4.74376">
        <ele>151.06</ele>
        <time>2022-04-25T07:36:31Z</time>
      </trkpt>
      <trkpt lat="45.35303" lon="4.74356">
        <ele>152.51</ele>
        <time>2022-04-25T07:36:46Z</time>
      </trkpt>
      <trkpt lat="45.35307" lon="4.74343">
        <ele>153.47</ele>
        <time>2022-04-25T07:36:54Z</time>
      </trkpt>
      <trkpt lat="45.35314" lon="4.74323">
        <ele>154.43</ele>
        <time>2022-04-25T07:37:09Z</time>
      </trkpt>
      <trkpt lat="45.35319" lon="4.74304">
        <ele>155.87</ele>
        <time>2022-04-25T07:37:23Z</time>
      </trkpt>
      <trkpt lat="45.35326" lon="4.74275">
        <ele>156.35</ele>
        <time>2022-04-25T07:37:40Z</time>
      </trkpt>
      <trkpt lat="45.35325" lon="4.7426">
        <ele>157.79</ele>
        <time>2022-04-25T07:37:50Z</time>
      </trkpt>
      <trkpt lat="45.35331" lon="4.74229">
        <ele>158.75</ele>
        <time>2022-04-25T07:38:05Z</time>
      </trkpt>
      <trkpt lat="45.35334" lon="4.74203">
        <ele>159.72</ele>
        <time>2022-04-25T07:38:21Z</time>
      </trkpt>
      <trkpt lat="45.35345" lon="4.74179">
        <ele>158.75</ele>
        <time>2022-04-25T07:38:39Z</time>
      </trkpt>
      <trkpt lat="45.35353" lon="4.74165">
        <ele>158.27</ele>
        <time>2022-04-25T07:38:52Z</time>
      </trkpt>
      <trkpt lat="45.35364" lon="4.74144">
        <ele>158.27</ele>
        <time>2022-04-25T07:39:05Z</time>
      </trkpt>
      <trkpt lat="45.35366" lon="4.74141">
        <ele>158.27</ele>
        <time>2022-04-25T07:39:07Z</time>
      </trkpt>
      <trkpt lat="45.35372" lon="4.74128">
        <ele>158.27</ele>
        <time>2022-04-25T07:39:15Z</time>
      </trkpt>
      <trkpt lat="45.35376" lon="4.74121">
        <ele>158.27</ele>
        <time>2022-04-25T07:39:22Z</time>
      </trkpt>
      <trkpt lat="45.35377" lon="4.7412">
        <ele>158.27</ele>
        <time>2022-04-25T07:39:23Z</time>
      </trkpt>
      <trkpt lat="45.35392" lon="4.74092">
        <ele>158.75</ele>
        <time>2022-04-25T07:39:39Z</time>
      </trkpt>
      <trkpt lat="45.35403" lon="4.74066">
        <ele>159.24</ele>
        <time>2022-04-25T07:39:55Z</time>
      </trkpt>
      <trkpt lat="45.35406" lon="4.74054">
        <ele>159.72</ele>
        <time>2022-04-25T07:40:03Z</time>
      </trkpt>
      <trkpt lat="45.35407" lon="4.74037">
        <ele>160.2</ele>
        <time>2022-04-25T07:40:13Z</time>
      </trkpt>
      <trkpt lat="45.35403" lon="4.7402">
        <ele>160.68</ele>
        <time>2022-04-25T07:40:26Z</time>
      </trkpt>
      <trkpt lat="45.35402" lon="4.74018">
        <ele>161.64</ele>
        <time>2022-04-25T07:40:27Z</time>
      </trkpt>
      <trkpt lat="45.35392" lon="4.73988">
        <ele>161.16</ele>
        <time>2022-04-25T07:40:44Z</time>
      </trkpt>
      <trkpt lat="45.35385" lon="4.73968">
        <ele>162.12</ele>
        <time>2022-04-25T07:40:57Z</time>
      </trkpt>
      <trkpt lat="45.35378" lon="4.73949">
        <ele>160.68</ele>
        <time>2022-04-25T07:41:09Z</time>
      </trkpt>
      <trkpt lat="45.35376" lon="4.73945">
        <ele>161.16</ele>
        <time>2022-04-25T07:41:22Z</time>
      </trkpt>
      <trkpt lat="45.35366" lon="4.73933">
        <ele>162.6</ele>
        <time>2022-04-25T07:41:35Z</time>
      </trkpt>
      <trkpt lat="45.35358" lon="4.73912">
        <ele>163.08</ele>
        <time>2022-04-25T07:41:50Z</time>
      </trkpt>
      <trkpt lat="45.3535" lon="4.73893">
        <ele>164.04</ele>
        <time>2022-04-25T07:42:04Z</time>
      </trkpt>
      <trkpt lat="45.35348" lon="4.73889">
        <ele>164.52</ele>
        <time>2022-04-25T07:42:07Z</time>
      </trkpt>
      <trkpt lat="45.3534" lon="4.73875">
        <ele>165.48</ele>
        <time>2022-04-25T07:42:18Z</time>
      </trkpt>
      <trkpt lat="45.3533" lon="4.73852">
        <ele>166.45</ele>
        <time>2022-04-25T07:42:32Z</time>
      </trkpt>
      <trkpt lat="45.3532" lon="4.73831">
        <ele>168.37</ele>
        <time>2022-04-25T07:42:49Z</time>
      </trkpt>
      <trkpt lat="45.35316" lon="4.73822">
        <ele>168.85</ele>
        <time>2022-04-25T07:43:04Z</time>
      </trkpt>
      <trkpt lat="45.35308" lon="4.73798">
        <ele>169.81</ele>
        <time>2022-04-25T07:43:19Z</time>
      </trkpt>
      <trkpt lat="45.35295" lon="4.73779">
        <ele>172.69</ele>
        <time>2022-04-25T07:43:39Z</time>
      </trkpt>
      <trkpt lat="45.35288" lon="4.73756">
        <ele>173.66</ele>
        <time>2022-04-25T07:43:55Z</time>
      </trkpt>
      <trkpt lat="45.35287" lon="4.73751">
        <ele>173.66</ele>
        <time>2022-04-25T07:43:59Z</time>
      </trkpt>
      <trkpt lat="45.35287" lon="4.73731">
        <ele>174.62</ele>
        <time>2022-04-25T07:44:13Z</time>
      </trkpt>
      <trkpt lat="45.35285" lon="4.73719">
        <ele>175.1</ele>
        <time>2022-04-25T07:44:22Z</time>
      </trkpt>
      <trkpt lat="45.35278" lon="4.73698">
        <ele>177.5</ele>
        <time>2022-04-25T07:44:33Z</time>
      </trkpt>
      <trkpt lat="45.35272" lon="4.73683">
        <ele>179.42</ele>
        <time>2022-04-25T07:44:44Z</time>
      </trkpt>
      <trkpt lat="45.35263" lon="4.73666">
        <ele>180.38</ele>
        <time>2022-04-25T07:44:57Z</time>
      </trkpt>
      <trkpt lat="45.35255" lon="4.73654">
        <ele>179.42</ele>
        <time>2022-04-25T07:45:11Z</time>
      </trkpt>
      <trkpt lat="45.35248" lon="4.7364">
        <ele>177.02</ele>
        <time>2022-04-25T07:45:25Z</time>
      </trkpt>
      <trkpt lat="45.3524" lon="4.73619">
        <ele>174.62</ele>
        <time>2022-04-25T07:45:41Z</time>
      </trkpt>
      <trkpt lat="45.35237" lon="4.73604">
        <ele>173.66</ele>
        <time>2022-04-25T07:45:49Z</time>
      </trkpt>
      <trkpt lat="45.35229" lon="4.73592">
        <ele>171.73</ele>
        <time>2022-04-25T07:46:03Z</time>
      </trkpt>
      <trkpt lat="45.35222" lon="4.73583">
        <ele>170.77</ele>
        <time>2022-04-25T07:46:18Z</time>
      </trkpt>
      <trkpt lat="45.35212" lon="4.73576">
        <ele>174.14</ele>
        <time>2022-04-25T07:46:30Z</time>
      </trkpt>
      <trkpt lat="45.35199" lon="4.73561">
        <ele>177.02</ele>
        <time>2022-04-25T07:46:46Z</time>
      </trkpt>
      <trkpt lat="45.35195" lon="4.73549">
        <ele>179.9</ele>
        <time>2022-04-25T07:46:59Z</time>
      </trkpt>
      <trkpt lat="45.35189" lon="4.73539">
        <ele>183.27</ele>
        <time>2022-04-25T07:47:16Z</time>
      </trkpt>
      <trkpt lat="45.35185" lon="4.73525">
        <ele>185.67</ele>
        <time>2022-04-25T07:47:33Z</time>
      </trkpt>
      <trkpt lat="45.3518" lon="4.73516">
        <ele>189.04</ele>
        <time>2022-04-25T07:47:45Z</time>
      </trkpt>
      <trkpt lat="45.35178" lon="4.73498">
        <ele>192.4</ele>
        <time>2022-04-25T07:48:03Z</time>
      </trkpt>
      <trkpt lat="45.35175" lon="4.73483">
        <ele>195.28</ele>
        <time>2022-04-25T07:48:20Z</time>
      </trkpt>
      <trkpt lat="45.35169" lon="4.73464">
        <ele>198.65</ele>
        <time>2022-04-25T07:48:38Z</time>
      </trkpt>
      <trkpt lat="45.35154" lon="4.73446">
        <ele>201.53</ele>
        <time>2022-04-25T07:48:58Z</time>
      </trkpt>
      <trkpt lat="45.35147" lon="4.73431">
        <ele>203.94</ele>
        <time>2022-04-25T07:49:16Z</time>
      </trkpt>
      <trkpt lat="45.35135" lon="4.7341">
        <ele>205.86</ele>
        <time>2022-04-25T07:49:32Z</time>
      </trkpt>
      <trkpt lat="45.3513" lon="4.73398">
        <ele>207.3</ele>
        <time>2022-04-25T07:49:46Z</time>
      </trkpt>
      <trkpt lat="45.35126" lon="4.73386">
        <ele>208.26</ele>
        <time>2022-04-25T07:50:02Z</time>
      </trkpt>
      <trkpt lat="45.35127" lon="4.7337">
        <ele>209.22</ele>
        <time>2022-04-25T07:50:18Z</time>
      </trkpt>
      <trkpt lat="45.3512" lon="4.73355">
        <ele>213.07</ele>
        <time>2022-04-25T07:50:34Z</time>
      </trkpt>
      <trkpt lat="45.35114" lon="4.73332">
        <ele>215.47</ele>
        <time>2022-04-25T07:50:52Z</time>
      </trkpt>
      <trkpt lat="45.35103" lon="4.73315">
        <ele>217.88</ele>
        <time>2022-04-25T07:51:11Z</time>
      </trkpt>
      <trkpt lat="45.351" lon="4.733">
        <ele>220.28</ele>
        <time>2022-04-25T07:51:26Z</time>
      </trkpt>
      <trkpt lat="45.35096" lon="4.73288">
        <ele>223.16</ele>
        <time>2022-04-25T07:51:40Z</time>
      </trkpt>
      <trkpt lat="45.35094" lon="4.73274">
        <ele>225.09</ele>
        <time>2022-04-25T07:51:52Z</time>
      </trkpt>
      <trkpt lat="45.35088" lon="4.7326">
        <ele>227.01</ele>
        <time>2022-04-25T07:52:06Z</time>
      </trkpt>
      <trkpt lat="45.35082" lon="4.73244">
        <ele>228.93</ele>
        <time>2022-04-25T07:52:22Z</time>
      </trkpt>
      <trkpt lat="45.35078" lon="4.7323">
        <ele>232.3</ele>
        <time>2022-04-25T07:52:39Z</time>
      </trkpt>
      <trkpt lat="45.35073" lon="4.73216">
        <ele>234.22</ele>
        <time>2022-04-25T07:52:56Z</time>
      </trkpt>
      <trkpt lat="45.35066" lon="4.73202">
        <ele>237.1</ele>
        <time>2022-04-25T07:53:13Z</time>
      </trkpt>
      <trkpt lat="45.35064" lon="4.73191">
        <ele>239.99</ele>
        <time>2022-04-25T07:53:32Z</time>
      </trkpt>
      <trkpt lat="45.3507" lon="4.73197">
        <ele>240.95</ele>
        <time>2022-04-25T07:53:47Z</time>
      </trkpt>
      <trkpt lat="45.35083" lon="4.73205">
        <ele>243.83</ele>
        <time>2022-04-25T07:54:05Z</time>
      </trkpt>
      <trkpt lat="45.35096" lon="4.73216">
        <ele>244.79</ele>
        <time>2022-04-25T07:54:22Z</time>
      </trkpt>
      <trkpt lat="45.35105" lon="4.73231">
        <ele>244.79</ele>
        <time>2022-04-25T07:54:39Z</time>
      </trkpt>
      <trkpt lat="45.35113" lon="4.73245">
        <ele>245.75</ele>
        <time>2022-04-25T07:54:52Z</time>
      </trkpt>
      <trkpt lat="45.35123" lon="4.73256">
        <ele>247.2</ele>
        <time>2022-04-25T07:55:07Z</time>
      </trkpt>
      <trkpt lat="45.35132" lon="4.73265">
        <ele>249.6</ele>
        <time>2022-04-25T07:55:22Z</time>
      </trkpt>
      <trkpt lat="45.35129" lon="4.73256">
        <ele>251.52</ele>
        <time>2022-04-25T07:55:36Z</time>
      </trkpt>
      <trkpt lat="45.35127" lon="4.73244">
        <ele>252.96</ele>
        <time>2022-04-25T07:55:49Z</time>
      </trkpt>
      <trkpt lat="45.35124" lon="4.7323">
        <ele>254.89</ele>
        <time>2022-04-25T07:56:03Z</time>
      </trkpt>
      <trkpt lat="45.35124" lon="4.73213">
        <ele>257.29</ele>
        <time>2022-04-25T07:56:20Z</time>
      </trkpt>
      <trkpt lat="45.3512" lon="4.73196">
        <ele>259.69</ele>
        <time>2022-04-25T07:56:36Z</time>
      </trkpt>
      <trkpt lat="45.35117" lon="4.73181">
        <ele>261.14</ele>
        <time>2022-04-25T07:56:52Z</time>
      </trkpt>
      <trkpt lat="45.35111" lon="4.7316">
        <ele>262.58</ele>
        <time>2022-04-25T07:57:11Z</time>
      </trkpt>
      <trkpt lat="45.35096" lon="4.73141">
        <ele>264.98</ele>
        <time>2022-04-25T07:57:28Z</time>
      </trkpt>
      <trkpt lat="45.35082" lon="4.73132">
        <ele>267.38</ele>
        <time>2022-04-25T07:57:45Z</time>
      </trkpt>
      <trkpt lat="45.35073" lon="4.73117">
        <ele>269.79</ele>
        <time>2022-04-25T07:58:01Z</time>
      </trkpt>
      <trkpt lat="45.35065" lon="4.73106">
        <ele>271.23</ele>
        <time>2022-04-25T07:58:18Z</time>
      </trkpt>
      <trkpt lat="45.35056" lon="4.7309">
        <ele>273.63</ele>
        <time>2022-04-25T07:58:35Z</time>
      </trkpt>
      <trkpt lat="45.35047" lon="4.7308">
        <ele>277</ele>
        <time>2022-04-25T07:58:50Z</time>
      </trkpt>
      <trkpt lat="45.35041" lon="4.73063">
        <ele>279.88</ele>
        <time>2022-04-25T07:59:06Z</time>
      </trkpt>
      <trkpt lat="45.35037" lon="4.73046">
        <ele>282.28</ele>
        <time>2022-04-25T07:59:21Z</time>
      </trkpt>
      <trkpt lat="45.35035" lon="4.73027">
        <ele>285.65</ele>
        <time>2022-04-25T07:59:39Z</time>
      </trkpt>
      <trkpt lat="45.35036" lon="4.73007">
        <ele>287.09</ele>
        <time>2022-04-25T07:59:54Z</time>
      </trkpt>
      <trkpt lat="45.35033" lon="4.72985">
        <ele>286.61</ele>
        <time>2022-04-25T08:00:10Z</time>
      </trkpt>
      <trkpt lat="45.35029" lon="4.7296">
        <ele>287.57</ele>
        <time>2022-04-25T08:00:27Z</time>
      </trkpt>
      <trkpt lat="45.35026" lon="4.72938">
        <ele>288.53</ele>
        <time>2022-04-25T08:00:43Z</time>
      </trkpt>
      <trkpt lat="45.35024" lon="4.72919">
        <ele>289.49</ele>
        <time>2022-04-25T08:00:57Z</time>
      </trkpt>
      <trkpt lat="45.35023" lon="4.72895">
        <ele>290.94</ele>
        <time>2022-04-25T08:01:13Z</time>
      </trkpt>
      <trkpt lat="45.35021" lon="4.72875">
        <ele>292.38</ele>
        <time>2022-04-25T08:01:27Z</time>
      </trkpt>
      <trkpt lat="45.35022" lon="4.72854">
        <ele>295.74</ele>
        <time>2022-04-25T08:01:42Z</time>
      </trkpt>
      <trkpt lat="45.35027" lon="4.72833">
        <ele>298.63</ele>
        <time>2022-04-25T08:01:59Z</time>
      </trkpt>
      <trkpt lat="45.35032" lon="4.72818">
        <ele>301.99</ele>
        <time>2022-04-25T08:02:12Z</time>
      </trkpt>
      <trkpt lat="45.35036" lon="4.72798">
        <ele>304.88</ele>
        <time>2022-04-25T08:02:28Z</time>
      </trkpt>
      <trkpt lat="45.3504" lon="4.72782">
        <ele>306.8</ele>
        <time>2022-04-25T08:02:42Z</time>
      </trkpt>
      <trkpt lat="45.35043" lon="4.72763">
        <ele>308.72</ele>
        <time>2022-04-25T08:02:56Z</time>
      </trkpt>
      <trkpt lat="45.35045" lon="4.72752">
        <ele>309.2</ele>
        <time>2022-04-25T08:03:08Z</time>
      </trkpt>
      <trkpt lat="45.35053" lon="4.7273">
        <ele>310.16</ele>
        <time>2022-04-25T08:03:24Z</time>
      </trkpt>
      <trkpt lat="45.3506" lon="4.72707">
        <ele>311.6</ele>
        <time>2022-04-25T08:03:42Z</time>
      </trkpt>
      <trkpt lat="45.35064" lon="4.72698">
        <ele>312.57</ele>
        <time>2022-04-25T08:03:50Z</time>
      </trkpt>
      <trkpt lat="45.35066" lon="4.72688">
        <ele>313.05</ele>
        <time>2022-04-25T08:03:57Z</time>
      </trkpt>
      <trkpt lat="45.35073" lon="4.72667">
        <ele>314.01</ele>
        <time>2022-04-25T08:04:13Z</time>
      </trkpt>
      <trkpt lat="45.35083" lon="4.7265">
        <ele>314.97</ele>
        <time>2022-04-25T08:04:28Z</time>
      </trkpt>
      <trkpt lat="45.35094" lon="4.72633">
        <ele>315.93</ele>
        <time>2022-04-25T08:04:41Z</time>
      </trkpt>
      <trkpt lat="45.35096" lon="4.72629">
        <ele>315.93</ele>
        <time>2022-04-25T08:04:44Z</time>
      </trkpt>
      <trkpt lat="45.35105" lon="4.72612">
        <ele>317.37</ele>
        <time>2022-04-25T08:04:58Z</time>
      </trkpt>
      <trkpt lat="45.35117" lon="4.72591">
        <ele>318.33</ele>
        <time>2022-04-25T08:05:16Z</time>
      </trkpt>
      <trkpt lat="45.35125" lon="4.72574">
        <ele>319.3</ele>
        <time>2022-04-25T08:05:31Z</time>
      </trkpt>
      <trkpt lat="45.35124" lon="4.7257">
        <ele>320.74</ele>
        <time>2022-04-25T08:05:45Z</time>
      </trkpt>
      <trkpt lat="45.35126" lon="4.72568">
        <ele>320.26</ele>
        <time>2022-04-25T08:06:04Z</time>
      </trkpt>
      <trkpt lat="45.35126" lon="4.72567">
        <ele>320.26</ele>
        <time>2022-04-25T08:06:21Z</time>
      </trkpt>
      <trkpt lat="45.35127" lon="4.72571">
        <ele>320.74</ele>
        <time>2022-04-25T08:06:33Z</time>
      </trkpt>
      <trkpt lat="45.35126" lon="4.72573">
        <ele>321.7</ele>
        <time>2022-04-25T08:06:56Z</time>
      </trkpt>
      <trkpt lat="45.35129" lon="4.72561">
        <ele>321.7</ele>
        <time>2022-04-25T08:07:19Z</time>
      </trkpt>
      <trkpt lat="45.35131" lon="4.72557">
        <ele>321.7</ele>
        <time>2022-04-25T08:07:22Z</time>
      </trkpt>
      <trkpt lat="45.35137" lon="4.72541">
        <ele>322.66</ele>
        <time>2022-04-25T08:07:34Z</time>
      </trkpt>
      <trkpt lat="45.35144" lon="4.72523">
        <ele>322.66</ele>
        <time>2022-04-25T08:07:47Z</time>
      </trkpt>
      <trkpt lat="45.35148" lon="4.72503">
        <ele>323.14</ele>
        <time>2022-04-25T08:07:58Z</time>
      </trkpt>
      <trkpt lat="45.3515" lon="4.72477">
        <ele>324.1</ele>
        <time>2022-04-25T08:08:13Z</time>
      </trkpt>
      <trkpt lat="45.35153" lon="4.72449">
        <ele>324.58</ele>
        <time>2022-04-25T08:08:29Z</time>
      </trkpt>
      <trkpt lat="45.35153" lon="4.7242">
        <ele>326.02</ele>
        <time>2022-04-25T08:08:46Z</time>
      </trkpt>
      <trkpt lat="45.35152" lon="4.72418">
        <ele>326.02</ele>
        <time>2022-04-25T08:08:47Z</time>
      </trkpt>
      <trkpt lat="45.35149" lon="4.72413">
        <ele>326.5</ele>
        <time>2022-04-25T08:08:51Z</time>
      </trkpt>
      <trkpt lat="45.35135" lon="4.72387">
        <ele>327.95</ele>
        <time>2022-04-25T08:09:10Z</time>
      </trkpt>
      <trkpt lat="45.3513" lon="4.72365">
        <ele>329.87</ele>
        <time>2022-04-25T08:09:27Z</time>
      </trkpt>
      <trkpt lat="45.3513" lon="4.72363">
        <ele>329.39</ele>
        <time>2022-04-25T08:09:28Z</time>
      </trkpt>
      <trkpt lat="45.35129" lon="4.7236">
        <ele>328.91</ele>
        <time>2022-04-25T08:09:30Z</time>
      </trkpt>
      <trkpt lat="45.35122" lon="4.72334">
        <ele>330.35</ele>
        <time>2022-04-25T08:09:45Z</time>
      </trkpt>
      <trkpt lat="45.35122" lon="4.72332">
        <ele>330.35</ele>
        <time>2022-04-25T08:09:46Z</time>
      </trkpt>
      <trkpt lat="45.35116" lon="4.72303">
        <ele>330.35</ele>
        <time>2022-04-25T08:10:01Z</time>
      </trkpt>
      <trkpt lat="45.35109" lon="4.72278">
        <ele>331.31</ele>
        <time>2022-04-25T08:10:18Z</time>
      </trkpt>
      <trkpt lat="45.35108" lon="4.72267">
        <ele>332.75</ele>
        <time>2022-04-25T08:10:26Z</time>
      </trkpt>
      <trkpt lat="45.35106" lon="4.72244">
        <ele>334.2</ele>
        <time>2022-04-25T08:10:41Z</time>
      </trkpt>
      <trkpt lat="45.35106" lon="4.72217">
        <ele>336.6</ele>
        <time>2022-04-25T08:10:57Z</time>
      </trkpt>
      <trkpt lat="45.35101" lon="4.72193">
        <ele>338.04</ele>
        <time>2022-04-25T08:11:13Z</time>
      </trkpt>
      <trkpt lat="45.35098" lon="4.72171">
        <ele>339.48</ele>
        <time>2022-04-25T08:11:28Z</time>
      </trkpt>
      <trkpt lat="45.35091" lon="4.72153">
        <ele>340.92</ele>
        <time>2022-04-25T08:11:43Z</time>
      </trkpt>
      <trkpt lat="45.35077" lon="4.72131">
        <ele>341.89</ele>
        <time>2022-04-25T08:11:59Z</time>
      </trkpt>
      <trkpt lat="45.35061" lon="4.72116">
        <ele>342.37</ele>
        <time>2022-04-25T08:12:15Z</time>
      </trkpt>
      <trkpt lat="45.35047" lon="4.72104">
        <ele>343.33</ele>
        <time>2022-04-25T08:12:31Z</time>
      </trkpt>
      <trkpt lat="45.35045" lon="4.72101">
        <ele>343.33</ele>
        <time>2022-04-25T08:12:34Z</time>
      </trkpt>
      <trkpt lat="45.35025" lon="4.72084">
        <ele>343.81</ele>
        <time>2022-04-25T08:12:51Z</time>
      </trkpt>
      <trkpt lat="45.35023" lon="4.72083">
        <ele>342.85</ele>
        <time>2022-04-25T08:12:53Z</time>
      </trkpt>
      <trkpt lat="45.3502" lon="4.72079">
        <ele>344.29</ele>
        <time>2022-04-25T08:12:57Z</time>
      </trkpt>
      <trkpt lat="45.35" lon="4.72071">
        <ele>344.29</ele>
        <time>2022-04-25T08:13:15Z</time>
      </trkpt>
      <trkpt lat="45.34981" lon="4.7207">
        <ele>345.25</ele>
        <time>2022-04-25T08:13:31Z</time>
      </trkpt>
      <trkpt lat="45.34964" lon="4.72069">
        <ele>346.21</ele>
        <time>2022-04-25T08:13:43Z</time>
      </trkpt>
      <trkpt lat="45.34955" lon="4.72064">
        <ele>346.69</ele>
        <time>2022-04-25T08:13:51Z</time>
      </trkpt>
      <trkpt lat="45.34944" lon="4.72052">
        <ele>346.69</ele>
        <time>2022-04-25T08:14:03Z</time>
      </trkpt>
      <trkpt lat="45.34924" lon="4.72047">
        <ele>346.69</ele>
        <time>2022-04-25T08:14:20Z</time>
      </trkpt>
      <trkpt lat="45.34904" lon="4.72051">
        <ele>346.69</ele>
        <time>2022-04-25T08:14:37Z</time>
      </trkpt>
      <trkpt lat="45.34885" lon="4.72055">
        <ele>347.17</ele>
        <time>2022-04-25T08:14:54Z</time>
      </trkpt>
      <trkpt lat="45.34862" lon="4.72058">
        <ele>347.65</ele>
        <time>2022-04-25T08:15:12Z</time>
      </trkpt>
      <trkpt lat="45.34839" lon="4.72064">
        <ele>347.65</ele>
        <time>2022-04-25T08:15:30Z</time>
      </trkpt>
      <trkpt lat="45.34821" lon="4.72074">
        <ele>347.65</ele>
        <time>2022-04-25T08:15:46Z</time>
      </trkpt>
      <trkpt lat="45.34804" lon="4.72082">
        <ele>348.62</ele>
        <time>2022-04-25T08:16:02Z</time>
      </trkpt>
      <trkpt lat="45.34785" lon="4.72091">
        <ele>348.62</ele>
        <time>2022-04-25T08:16:20Z</time>
      </trkpt>
      <trkpt lat="45.34771" lon="4.72099">
        <ele>349.1</ele>
        <time>2022-04-25T08:16:34Z</time>
      </trkpt>
      <trkpt lat="45.34759" lon="4.72105">
        <ele>349.58</ele>
        <time>2022-04-25T08:16:47Z</time>
      </trkpt>
      <trkpt lat="45.34755" lon="4.72122">
        <ele>349.58</ele>
        <time>2022-04-25T08:16:59Z</time>
      </trkpt>
      <trkpt lat="45.34756" lon="4.72125">
        <ele>349.58</ele>
        <time>2022-04-25T08:17:01Z</time>
      </trkpt>
      <trkpt lat="45.34757" lon="4.72134">
        <ele>349.58</ele>
        <time>2022-04-25T08:17:14Z</time>
      </trkpt>
      <trkpt lat="45.34755" lon="4.72141">
        <ele>349.58</ele>
        <time>2022-04-25T08:17:25Z</time>
      </trkpt>
      <trkpt lat="45.34756" lon="4.72159">
        <ele>349.1</ele>
        <time>2022-04-25T08:17:38Z</time>
      </trkpt>
      <trkpt lat="45.34756" lon="4.72186">
        <ele>348.62</ele>
        <time>2022-04-25T08:17:53Z</time>
      </trkpt>
      <trkpt lat="45.34754" lon="4.7221">
        <ele>347.65</ele>
        <time>2022-04-25T08:18:07Z</time>
      </trkpt>
      <trkpt lat="45.34745" lon="4.72229">
        <ele>347.17</ele>
        <time>2022-04-25T08:18:22Z</time>
      </trkpt>
      <trkpt lat="45.34736" lon="4.72241">
        <ele>346.21</ele>
        <time>2022-04-25T08:18:36Z</time>
      </trkpt>
      <trkpt lat="45.34729" lon="4.72238">
        <ele>344.77</ele>
        <time>2022-04-25T08:18:45Z</time>
      </trkpt>
      <trkpt lat="45.34725" lon="4.72233">
        <ele>345.25</ele>
        <time>2022-04-25T08:18:50Z</time>
      </trkpt>
      <trkpt lat="45.34727" lon="4.72234">
        <ele>344.77</ele>
        <time>2022-04-25T08:18:52Z</time>
      </trkpt>
      <trkpt lat="45.34732" lon="4.72238">
        <ele>345.25</ele>
        <time>2022-04-25T08:18:57Z</time>
      </trkpt>
      <trkpt lat="45.34739" lon="4.72239">
        <ele>346.21</ele>
        <time>2022-04-25T08:19:04Z</time>
      </trkpt>
      <trkpt lat="45.34739" lon="4.72246">
        <ele>346.69</ele>
        <time>2022-04-25T08:19:10Z</time>
      </trkpt>
      <trkpt lat="45.34738" lon="4.72255">
        <ele>346.69</ele>
        <time>2022-04-25T08:19:26Z</time>
      </trkpt>
      <trkpt lat="45.34739" lon="4.72255">
        <ele>346.21</ele>
        <time>2022-04-25T08:19:46Z</time>
      </trkpt>
      <trkpt lat="45.34741" lon="4.72257">
        <ele>346.21</ele>
        <time>2022-04-25T08:20:25Z</time>
      </trkpt>
      <trkpt lat="45.3474" lon="4.72256">
        <ele>347.17</ele>
        <time>2022-04-25T08:21:02Z</time>
      </trkpt>
      <trkpt lat="45.34737" lon="4.72261">
        <ele>347.17</ele>
        <time>2022-04-25T08:21:28Z</time>
      </trkpt>
      <trkpt lat="45.34736" lon="4.72263">
        <ele>346.69</ele>
        <time>2022-04-25T08:21:30Z</time>
      </trkpt>
      <trkpt lat="45.34734" lon="4.72278">
        <ele>345.25</ele>
        <time>2022-04-25T08:21:38Z</time>
      </trkpt>
      <trkpt lat="45.3474" lon="4.72292">
        <ele>343.81</ele>
        <time>2022-04-25T08:21:48Z</time>
      </trkpt>
      <trkpt lat="45.34745" lon="4.72302">
        <ele>342.85</ele>
        <time>2022-04-25T08:21:55Z</time>
      </trkpt>
      <trkpt lat="45.34755" lon="4.72325">
        <ele>340.92</ele>
        <time>2022-04-25T08:22:11Z</time>
      </trkpt>
      <trkpt lat="45.34767" lon="4.72351">
        <ele>339.48</ele>
        <time>2022-04-25T08:22:27Z</time>
      </trkpt>
      <trkpt lat="45.34783" lon="4.72377">
        <ele>339.48</ele>
        <time>2022-04-25T08:22:46Z</time>
      </trkpt>
      <trkpt lat="45.34789" lon="4.72396">
        <ele>337.56</ele>
        <time>2022-04-25T08:22:59Z</time>
      </trkpt>
      <trkpt lat="45.34789" lon="4.724">
        <ele>337.56</ele>
        <time>2022-04-25T08:23:01Z</time>
      </trkpt>
      <trkpt lat="45.34788" lon="4.72424">
        <ele>334.68</ele>
        <time>2022-04-25T08:23:18Z</time>
      </trkpt>
      <trkpt lat="45.34786" lon="4.72433">
        <ele>333.23</ele>
        <time>2022-04-25T08:23:25Z</time>
      </trkpt>
      <trkpt lat="45.34776" lon="4.7244">
        <ele>333.71</ele>
        <time>2022-04-25T08:23:39Z</time>
      </trkpt>
      <trkpt lat="45.34763" lon="4.72446">
        <ele>333.23</ele>
        <time>2022-04-25T08:23:50Z</time>
      </trkpt>
      <trkpt lat="45.34762" lon="4.72446">
        <ele>333.23</ele>
        <time>2022-04-25T08:23:51Z</time>
      </trkpt>
      <trkpt lat="45.34758" lon="4.72451">
        <ele>334.2</ele>
        <time>2022-04-25T08:23:55Z</time>
      </trkpt>
      <trkpt lat="45.34753" lon="4.72451">
        <ele>334.2</ele>
        <time>2022-04-25T08:24:09Z</time>
      </trkpt>
      <trkpt lat="45.34756" lon="4.72455">
        <ele>334.2</ele>
        <time>2022-04-25T08:24:26Z</time>
      </trkpt>
      <trkpt lat="45.34751" lon="4.72452">
        <ele>334.2</ele>
        <time>2022-04-25T08:24:46Z</time>
      </trkpt>
      <trkpt lat="45.34751" lon="4.72453">
        <ele>333.71</ele>
        <time>2022-04-25T08:24:53Z</time>
      </trkpt>
      <trkpt lat="45.34744" lon="4.72462">
        <ele>333.71</ele>
        <time>2022-04-25T08:25:00Z</time>
      </trkpt>
      <trkpt lat="45.34719" lon="4.72462">
        <ele>332.27</ele>
        <time>2022-04-25T08:25:19Z</time>
      </trkpt>
      <trkpt lat="45.347" lon="4.72458">
        <ele>329.87</ele>
        <time>2022-04-25T08:25:34Z</time>
      </trkpt>
      <trkpt lat="45.34679" lon="4.72458">
        <ele>327.47</ele>
        <time>2022-04-25T08:25:52Z</time>
      </trkpt>
      <trkpt lat="45.34678" lon="4.72457">
        <ele>326.99</ele>
        <time>2022-04-25T08:25:53Z</time>
      </trkpt>
      <trkpt lat="45.34672" lon="4.72455">
        <ele>326.02</ele>
        <time>2022-04-25T08:25:58Z</time>
      </trkpt>
      <trkpt lat="45.34667" lon="4.72453">
        <ele>325.54</ele>
        <time>2022-04-25T08:26:02Z</time>
      </trkpt>
      <trkpt lat="45.34642" lon="4.7244">
        <ele>323.14</ele>
        <time>2022-04-25T08:26:22Z</time>
      </trkpt>
      <trkpt lat="45.34638" lon="4.72439">
        <ele>322.18</ele>
        <time>2022-04-25T08:26:26Z</time>
      </trkpt>
      <trkpt lat="45.34635" lon="4.72439">
        <ele>322.18</ele>
        <time>2022-04-25T08:26:28Z</time>
      </trkpt>
      <trkpt lat="45.34622" lon="4.72432">
        <ele>320.26</ele>
        <time>2022-04-25T08:26:41Z</time>
      </trkpt>
      <trkpt lat="45.34608" lon="4.7241">
        <ele>316.89</ele>
        <time>2022-04-25T08:26:58Z</time>
      </trkpt>
      <trkpt lat="45.34592" lon="4.72393">
        <ele>314.97</ele>
        <time>2022-04-25T08:27:13Z</time>
      </trkpt>
      <trkpt lat="45.34582" lon="4.72383">
        <ele>312.09</ele>
        <time>2022-04-25T08:27:25Z</time>
      </trkpt>
      <trkpt lat="45.34574" lon="4.72377">
        <ele>311.12</ele>
        <time>2022-04-25T08:27:34Z</time>
      </trkpt>
      <trkpt lat="45.34562" lon="4.72366">
        <ele>309.2</ele>
        <time>2022-04-25T08:27:45Z</time>
      </trkpt>
      <trkpt lat="45.34543" lon="4.72356">
        <ele>306.8</ele>
        <time>2022-04-25T08:28:01Z</time>
      </trkpt>
      <trkpt lat="45.34524" lon="4.72346">
        <ele>305.84</ele>
        <time>2022-04-25T08:28:16Z</time>
      </trkpt>
      <trkpt lat="45.34519" lon="4.72345">
        <ele>305.84</ele>
        <time>2022-04-25T08:28:20Z</time>
      </trkpt>
      <trkpt lat="45.34505" lon="4.72355">
        <ele>305.84</ele>
        <time>2022-04-25T08:28:36Z</time>
      </trkpt>
      <trkpt lat="45.34504" lon="4.72356">
        <ele>305.84</ele>
        <time>2022-04-25T08:28:37Z</time>
      </trkpt>
      <trkpt lat="45.34489" lon="4.72363">
        <ele>307.76</ele>
        <time>2022-04-25T08:28:54Z</time>
      </trkpt>
      <trkpt lat="45.34467" lon="4.72374">
        <ele>310.64</ele>
        <time>2022-04-25T08:29:11Z</time>
      </trkpt>
      <trkpt lat="45.3445" lon="4.72379">
        <ele>312.09</ele>
        <time>2022-04-25T08:29:25Z</time>
      </trkpt>
      <trkpt lat="45.34435" lon="4.72381">
        <ele>314.97</ele>
        <time>2022-04-25T08:29:39Z</time>
      </trkpt>
      <trkpt lat="45.3442" lon="4.72385">
        <ele>318.33</ele>
        <time>2022-04-25T08:29:55Z</time>
      </trkpt>
      <trkpt lat="45.34404" lon="4.72388">
        <ele>321.22</ele>
        <time>2022-04-25T08:30:12Z</time>
      </trkpt>
      <trkpt lat="45.3439" lon="4.72387">
        <ele>323.14</ele>
        <time>2022-04-25T08:30:27Z</time>
      </trkpt>
      <trkpt lat="45.3437" lon="4.72387">
        <ele>324.1</ele>
        <time>2022-04-25T08:30:42Z</time>
      </trkpt>
      <trkpt lat="45.34348" lon="4.72386">
        <ele>326.02</ele>
        <time>2022-04-25T08:31:00Z</time>
      </trkpt>
      <trkpt lat="45.34332" lon="4.72397">
        <ele>327.95</ele>
        <time>2022-04-25T08:31:17Z</time>
      </trkpt>
      <trkpt lat="45.34322" lon="4.72411">
        <ele>331.31</ele>
        <time>2022-04-25T08:31:30Z</time>
      </trkpt>
      <trkpt lat="45.34321" lon="4.72414">
        <ele>331.31</ele>
        <time>2022-04-25T08:31:33Z</time>
      </trkpt>
      <trkpt lat="45.34315" lon="4.72432">
        <ele>333.71</ele>
        <time>2022-04-25T08:31:48Z</time>
      </trkpt>
      <trkpt lat="45.3431" lon="4.72453">
        <ele>336.12</ele>
        <time>2022-04-25T08:32:03Z</time>
      </trkpt>
      <trkpt lat="45.3431" lon="4.72454">
        <ele>337.08</ele>
        <time>2022-04-25T08:32:04Z</time>
      </trkpt>
      <trkpt lat="45.3431" lon="4.7248">
        <ele>339</ele>
        <time>2022-04-25T08:32:21Z</time>
      </trkpt>
      <trkpt lat="45.34308" lon="4.72511">
        <ele>340.92</ele>
        <time>2022-04-25T08:32:40Z</time>
      </trkpt>
      <trkpt lat="45.34307" lon="4.72524">
        <ele>341.89</ele>
        <time>2022-04-25T08:32:48Z</time>
      </trkpt>
      <trkpt lat="45.34308" lon="4.72533">
        <ele>342.37</ele>
        <time>2022-04-25T08:32:54Z</time>
      </trkpt>
      <trkpt lat="45.34308" lon="4.72537">
        <ele>342.37</ele>
        <time>2022-04-25T08:32:56Z</time>
      </trkpt>
      <trkpt lat="45.34308" lon="4.72546">
        <ele>342.85</ele>
        <time>2022-04-25T08:33:05Z</time>
      </trkpt>
      <trkpt lat="45.34309" lon="4.72543">
        <ele>342.85</ele>
        <time>2022-04-25T08:33:07Z</time>
      </trkpt>
      <trkpt lat="45.34309" lon="4.72521">
        <ele>341.89</ele>
        <time>2022-04-25T08:33:22Z</time>
      </trkpt>
      <trkpt lat="45.34309" lon="4.72493">
        <ele>340.92</ele>
        <time>2022-04-25T08:33:40Z</time>
      </trkpt>
      <trkpt lat="45.34309" lon="4.72484">
        <ele>339.96</ele>
        <time>2022-04-25T08:33:46Z</time>
      </trkpt>
      <trkpt lat="45.3431" lon="4.72478">
        <ele>339.96</ele>
        <time>2022-04-25T08:33:50Z</time>
      </trkpt>
      <trkpt lat="45.34312" lon="4.72454">
        <ele>337.08</ele>
        <time>2022-04-25T08:34:06Z</time>
      </trkpt>
      <trkpt lat="45.34312" lon="4.72431">
        <ele>334.2</ele>
        <time>2022-04-25T08:34:23Z</time>
      </trkpt>
      <trkpt lat="45.34307" lon="4.7243">
        <ele>335.16</ele>
        <time>2022-04-25T08:34:37Z</time>
      </trkpt>
      <trkpt lat="45.34298" lon="4.72434">
        <ele>335.16</ele>
        <time>2022-04-25T08:34:53Z</time>
      </trkpt>
      <trkpt lat="45.34298" lon="4.72435">
        <ele>334.68</ele>
        <time>2022-04-25T08:35:36Z</time>
      </trkpt>
      <trkpt lat="45.34294" lon="4.72435">
        <ele>334.68</ele>
        <time>2022-04-25T08:36:10Z</time>
      </trkpt>
      <trkpt lat="45.34295" lon="4.72436">
        <ele>334.68</ele>
        <time>2022-04-25T08:36:48Z</time>
      </trkpt>
      <trkpt lat="45.34293" lon="4.72446">
        <ele>334.68</ele>
        <time>2022-04-25T08:37:32Z</time>
      </trkpt>
      <trkpt lat="45.34291" lon="4.72444">
        <ele>334.68</ele>
        <time>2022-04-25T08:38:05Z</time>
      </trkpt>
      <trkpt lat="45.34275" lon="4.72454">
        <ele>335.16</ele>
        <time>2022-04-25T08:38:21Z</time>
      </trkpt>
      <trkpt lat="45.34265" lon="4.72463">
        <ele>336.12</ele>
        <time>2022-04-25T08:38:31Z</time>
      </trkpt>
      <trkpt lat="45.34242" lon="4.72478">
        <ele>337.08</ele>
        <time>2022-04-25T08:38:51Z</time>
      </trkpt>
      <trkpt lat="45.34225" lon="4.72485">
        <ele>338.52</ele>
        <time>2022-04-25T08:39:07Z</time>
      </trkpt>
      <trkpt lat="45.34207" lon="4.7249">
        <ele>339.48</ele>
        <time>2022-04-25T08:39:24Z</time>
      </trkpt>
      <trkpt lat="45.34199" lon="4.72492">
        <ele>340.44</ele>
        <time>2022-04-25T08:39:31Z</time>
      </trkpt>
      <trkpt lat="45.34191" lon="4.72493">
        <ele>340.92</ele>
        <time>2022-04-25T08:39:37Z</time>
      </trkpt>
      <trkpt lat="45.34186" lon="4.72494">
        <ele>341.89</ele>
        <time>2022-04-25T08:39:41Z</time>
      </trkpt>
      <trkpt lat="45.34166" lon="4.725">
        <ele>342.37</ele>
        <time>2022-04-25T08:39:58Z</time>
      </trkpt>
      <trkpt lat="45.34145" lon="4.72507">
        <ele>343.33</ele>
        <time>2022-04-25T08:40:15Z</time>
      </trkpt>
      <trkpt lat="45.34127" lon="4.72516">
        <ele>344.77</ele>
        <time>2022-04-25T08:40:31Z</time>
      </trkpt>
      <trkpt lat="45.34123" lon="4.72516">
        <ele>345.25</ele>
        <time>2022-04-25T08:40:34Z</time>
      </trkpt>
      <trkpt lat="45.34119" lon="4.72519">
        <ele>345.25</ele>
        <time>2022-04-25T08:40:38Z</time>
      </trkpt>
      <trkpt lat="45.34101" lon="4.72521">
        <ele>346.69</ele>
        <time>2022-04-25T08:40:54Z</time>
      </trkpt>
      <trkpt lat="45.34078" lon="4.72523">
        <ele>346.69</ele>
        <time>2022-04-25T08:41:11Z</time>
      </trkpt>
      <trkpt lat="45.34066" lon="4.72526">
        <ele>347.17</ele>
        <time>2022-04-25T08:41:20Z</time>
      </trkpt>
      <trkpt lat="45.34037" lon="4.72524">
        <ele>347.17</ele>
        <time>2022-04-25T08:41:40Z</time>
      </trkpt>
      <trkpt lat="45.34015" lon="4.72529">
        <ele>348.13</ele>
        <time>2022-04-25T08:41:57Z</time>
      </trkpt>
      <trkpt lat="45.33993" lon="4.72531">
        <ele>348.13</ele>
        <time>2022-04-25T08:42:15Z</time>
      </trkpt>
      <trkpt lat="45.33969" lon="4.72532">
        <ele>350.06</ele>
        <time>2022-04-25T08:42:33Z</time>
      </trkpt>
      <trkpt lat="45.33947" lon="4.72531">
        <ele>350.54</ele>
        <time>2022-04-25T08:42:51Z</time>
      </trkpt>
      <trkpt lat="45.33923" lon="4.72533">
        <ele>351.5</ele>
        <time>2022-04-25T08:43:08Z</time>
      </trkpt>
      <trkpt lat="45.33898" lon="4.72531">
        <ele>352.94</ele>
        <time>2022-04-25T08:43:27Z</time>
      </trkpt>
      <trkpt lat="45.33875" lon="4.72533">
        <ele>353.42</ele>
        <time>2022-04-25T08:43:44Z</time>
      </trkpt>
      <trkpt lat="45.3385" lon="4.72531">
        <ele>354.86</ele>
        <time>2022-04-25T08:44:03Z</time>
      </trkpt>
      <trkpt lat="45.33826" lon="4.72531">
        <ele>355.34</ele>
        <time>2022-04-25T08:44:22Z</time>
      </trkpt>
      <trkpt lat="45.33804" lon="4.72521">
        <ele>356.31</ele>
        <time>2022-04-25T08:44:40Z</time>
      </trkpt>
      <trkpt lat="45.33781" lon="4.72517">
        <ele>356.31</ele>
        <time>2022-04-25T08:44:57Z</time>
      </trkpt>
      <trkpt lat="45.33763" lon="4.72508">
        <ele>356.31</ele>
        <time>2022-04-25T08:45:13Z</time>
      </trkpt>
      <trkpt lat="45.33736" lon="4.72502">
        <ele>355.34</ele>
        <time>2022-04-25T08:45:33Z</time>
      </trkpt>
      <trkpt lat="45.33714" lon="4.72517">
        <ele>355.83</ele>
        <time>2022-04-25T08:45:49Z</time>
      </trkpt>
      <trkpt lat="45.33703" lon="4.72536">
        <ele>355.83</ele>
        <time>2022-04-25T08:46:02Z</time>
      </trkpt>
      <trkpt lat="45.3369" lon="4.72555">
        <ele>356.31</ele>
        <time>2022-04-25T08:46:17Z</time>
      </trkpt>
      <trkpt lat="45.33669" lon="4.72571">
        <ele>356.79</ele>
        <time>2022-04-25T08:46:33Z</time>
      </trkpt>
      <trkpt lat="45.33648" lon="4.72585">
        <ele>357.75</ele>
        <time>2022-04-25T08:46:49Z</time>
      </trkpt>
      <trkpt lat="45.33628" lon="4.726">
        <ele>357.75</ele>
        <time>2022-04-25T08:47:05Z</time>
      </trkpt>
      <trkpt lat="45.33614" lon="4.7262">
        <ele>356.79</ele>
        <time>2022-04-25T08:47:19Z</time>
      </trkpt>
      <trkpt lat="45.33591" lon="4.72641">
        <ele>356.79</ele>
        <time>2022-04-25T08:47:39Z</time>
      </trkpt>
      <trkpt lat="45.33587" lon="4.72645">
        <ele>356.79</ele>
        <time>2022-04-25T08:47:42Z</time>
      </trkpt>
      <trkpt lat="45.33566" lon="4.72657">
        <ele>357.27</ele>
        <time>2022-04-25T08:47:59Z</time>
      </trkpt>
      <trkpt lat="45.3355" lon="4.72669">
        <ele>357.27</ele>
        <time>2022-04-25T08:48:13Z</time>
      </trkpt>
      <trkpt lat="45.33534" lon="4.7268">
        <ele>355.83</ele>
        <time>2022-04-25T08:48:26Z</time>
      </trkpt>
      <trkpt lat="45.33519" lon="4.72691">
        <ele>356.31</ele>
        <time>2022-04-25T08:48:40Z</time>
      </trkpt>
      <trkpt lat="45.335" lon="4.72701">
        <ele>357.27</ele>
        <time>2022-04-25T08:48:57Z</time>
      </trkpt>
      <trkpt lat="45.33493" lon="4.72699">
        <ele>357.75</ele>
        <time>2022-04-25T08:49:02Z</time>
      </trkpt>
      <trkpt lat="45.33485" lon="4.72696">
        <ele>357.75</ele>
        <time>2022-04-25T08:49:08Z</time>
      </trkpt>
      <trkpt lat="45.33477" lon="4.72692">
        <ele>358.23</ele>
        <time>2022-04-25T08:49:15Z</time>
      </trkpt>
      <trkpt lat="45.33456" lon="4.7269">
        <ele>360.15</ele>
        <time>2022-04-25T08:49:31Z</time>
      </trkpt>
      <trkpt lat="45.33433" lon="4.72682">
        <ele>361.59</ele>
        <time>2022-04-25T08:49:49Z</time>
      </trkpt>
      <trkpt lat="45.33413" lon="4.72678">
        <ele>362.55</ele>
        <time>2022-04-25T08:50:05Z</time>
      </trkpt>
      <trkpt lat="45.33393" lon="4.72668">
        <ele>364</ele>
        <time>2022-04-25T08:50:22Z</time>
      </trkpt>
      <trkpt lat="45.33391" lon="4.72665">
        <ele>364</ele>
        <time>2022-04-25T08:50:28Z</time>
      </trkpt>
      <trkpt lat="45.33412" lon="4.72676">
        <ele>363.52</ele>
        <time>2022-04-25T08:50:46Z</time>
      </trkpt>
      <trkpt lat="45.3343" lon="4.72681">
        <ele>362.55</ele>
        <time>2022-04-25T08:51:00Z</time>
      </trkpt>
      <trkpt lat="45.3345" lon="4.72686">
        <ele>361.59</ele>
        <time>2022-04-25T08:51:17Z</time>
      </trkpt>
      <trkpt lat="45.33467" lon="4.72689">
        <ele>359.67</ele>
        <time>2022-04-25T08:51:33Z</time>
      </trkpt>
      <trkpt lat="45.3347" lon="4.72689">
        <ele>359.67</ele>
        <time>2022-04-25T08:51:35Z</time>
      </trkpt>
      <trkpt lat="45.33486" lon="4.72695">
        <ele>358.71</ele>
        <time>2022-04-25T08:51:48Z</time>
      </trkpt>
      <trkpt lat="45.33485" lon="4.72719">
        <ele>357.75</ele>
        <time>2022-04-25T08:52:03Z</time>
      </trkpt>
      <trkpt lat="45.33469" lon="4.72746">
        <ele>357.27</ele>
        <time>2022-04-25T08:52:21Z</time>
      </trkpt>
      <trkpt lat="45.3345" lon="4.72778">
        <ele>357.27</ele>
        <time>2022-04-25T08:52:43Z</time>
      </trkpt>
      <trkpt lat="45.33434" lon="4.72805">
        <ele>357.27</ele>
        <time>2022-04-25T08:53:01Z</time>
      </trkpt>
      <trkpt lat="45.3342" lon="4.72828">
        <ele>357.75</ele>
        <time>2022-04-25T08:53:18Z</time>
      </trkpt>
      <trkpt lat="45.33408" lon="4.72848">
        <ele>356.79</ele>
        <time>2022-04-25T08:53:32Z</time>
      </trkpt>
      <trkpt lat="45.33394" lon="4.72871">
        <ele>355.83</ele>
        <time>2022-04-25T08:53:47Z</time>
      </trkpt>
      <trkpt lat="45.3338" lon="4.72897">
        <ele>355.34</ele>
        <time>2022-04-25T08:54:04Z</time>
      </trkpt>
      <trkpt lat="45.33361" lon="4.72919">
        <ele>354.86</ele>
        <time>2022-04-25T08:54:20Z</time>
      </trkpt>
      <trkpt lat="45.33346" lon="4.72931">
        <ele>354.38</ele>
        <time>2022-04-25T08:54:35Z</time>
      </trkpt>
      <trkpt lat="45.33325" lon="4.72942">
        <ele>352.94</ele>
        <time>2022-04-25T08:54:53Z</time>
      </trkpt>
      <trkpt lat="45.333" lon="4.72953">
        <ele>351.5</ele>
        <time>2022-04-25T08:55:12Z</time>
      </trkpt>
      <trkpt lat="45.33272" lon="4.72963">
        <ele>349.58</ele>
        <time>2022-04-25T08:55:33Z</time>
      </trkpt>
      <trkpt lat="45.33245" lon="4.72975">
        <ele>347.65</ele>
        <time>2022-04-25T08:55:53Z</time>
      </trkpt>
      <trkpt lat="45.33221" lon="4.7299">
        <ele>346.21</ele>
        <time>2022-04-25T08:56:14Z</time>
      </trkpt>
      <trkpt lat="45.3322" lon="4.72991">
        <ele>345.73</ele>
        <time>2022-04-25T08:56:15Z</time>
      </trkpt>
      <trkpt lat="45.33204" lon="4.72997">
        <ele>345.25</ele>
        <time>2022-04-25T08:56:28Z</time>
      </trkpt>
      <trkpt lat="45.33184" lon="4.73001">
        <ele>344.29</ele>
        <time>2022-04-25T08:56:44Z</time>
      </trkpt>
      <trkpt lat="45.33164" lon="4.73012">
        <ele>342.85</ele>
        <time>2022-04-25T08:57:00Z</time>
      </trkpt>
      <trkpt lat="45.33141" lon="4.73022">
        <ele>341.89</ele>
        <time>2022-04-25T08:57:19Z</time>
      </trkpt>
      <trkpt lat="45.33118" lon="4.7304">
        <ele>340.92</ele>
        <time>2022-04-25T08:57:39Z</time>
      </trkpt>
      <trkpt lat="45.33104" lon="4.7307">
        <ele>342.37</ele>
        <time>2022-04-25T08:57:59Z</time>
      </trkpt>
      <trkpt lat="45.33104" lon="4.73074">
        <ele>342.37</ele>
        <time>2022-04-25T08:58:01Z</time>
      </trkpt>
      <trkpt lat="45.33099" lon="4.73105">
        <ele>343.33</ele>
        <time>2022-04-25T08:58:18Z</time>
      </trkpt>
      <trkpt lat="45.33098" lon="4.73138">
        <ele>343.81</ele>
        <time>2022-04-25T08:58:35Z</time>
      </trkpt>
      <trkpt lat="45.33096" lon="4.73175">
        <ele>343.81</ele>
        <time>2022-04-25T08:58:54Z</time>
      </trkpt>
      <trkpt lat="45.33091" lon="4.73207">
        <ele>344.77</ele>
        <time>2022-04-25T08:59:10Z</time>
      </trkpt>
      <trkpt lat="45.33087" lon="4.7324">
        <ele>344.77</ele>
        <time>2022-04-25T08:59:28Z</time>
      </trkpt>
      <trkpt lat="45.33085" lon="4.73268">
        <ele>345.25</ele>
        <time>2022-04-25T08:59:44Z</time>
      </trkpt>
      <trkpt lat="45.33087" lon="4.73304">
        <ele>345.73</ele>
        <time>2022-04-25T09:00:02Z</time>
      </trkpt>
      <trkpt lat="45.331" lon="4.73338">
        <ele>346.69</ele>
        <time>2022-04-25T09:00:23Z</time>
      </trkpt>
      <trkpt lat="45.33117" lon="4.73376">
        <ele>347.17</ele>
        <time>2022-04-25T09:00:46Z</time>
      </trkpt>
      <trkpt lat="45.33122" lon="4.73417">
        <ele>348.62</ele>
        <time>2022-04-25T09:01:07Z</time>
      </trkpt>
      <trkpt lat="45.33121" lon="4.73422">
        <ele>348.13</ele>
        <time>2022-04-25T09:01:11Z</time>
      </trkpt>
      <trkpt lat="45.33117" lon="4.73433">
        <ele>348.13</ele>
        <time>2022-04-25T09:01:17Z</time>
      </trkpt>
      <trkpt lat="45.33117" lon="4.73461">
        <ele>348.62</ele>
        <time>2022-04-25T09:01:32Z</time>
      </trkpt>
      <trkpt lat="45.33099" lon="4.73476">
        <ele>351.02</ele>
        <time>2022-04-25T09:01:50Z</time>
      </trkpt>
      <trkpt lat="45.33084" lon="4.73491">
        <ele>352.94</ele>
        <time>2022-04-25T09:02:03Z</time>
      </trkpt>
      <trkpt lat="45.33072" lon="4.73515">
        <ele>353.9</ele>
        <time>2022-04-25T09:02:21Z</time>
      </trkpt>
      <trkpt lat="45.33059" lon="4.73542">
        <ele>355.34</ele>
        <time>2022-04-25T09:02:40Z</time>
      </trkpt>
      <trkpt lat="45.33052" lon="4.73554">
        <ele>355.34</ele>
        <time>2022-04-25T09:02:49Z</time>
      </trkpt>
      <trkpt lat="45.33035" lon="4.73575">
        <ele>355.83</ele>
        <time>2022-04-25T09:03:05Z</time>
      </trkpt>
      <trkpt lat="45.33018" lon="4.73597">
        <ele>355.83</ele>
        <time>2022-04-25T09:03:23Z</time>
      </trkpt>
      <trkpt lat="45.33014" lon="4.73599">
        <ele>356.31</ele>
        <time>2022-04-25T09:03:35Z</time>
      </trkpt>
      <trkpt lat="45.33014" lon="4.73596">
        <ele>355.83</ele>
        <time>2022-04-25T09:03:46Z</time>
      </trkpt>
      <trkpt lat="45.33016" lon="4.73595">
        <ele>355.83</ele>
        <time>2022-04-25T09:04:08Z</time>
      </trkpt>
      <trkpt lat="45.3301" lon="4.7361">
        <ele>355.83</ele>
        <time>2022-04-25T09:04:21Z</time>
      </trkpt>
      <trkpt lat="45.32999" lon="4.7364">
        <ele>357.27</ele>
        <time>2022-04-25T09:04:39Z</time>
      </trkpt>
      <trkpt lat="45.32984" lon="4.73662">
        <ele>357.75</ele>
        <time>2022-04-25T09:04:57Z</time>
      </trkpt>
      <trkpt lat="45.3297" lon="4.73682">
        <ele>359.67</ele>
        <time>2022-04-25T09:05:13Z</time>
      </trkpt>
      <trkpt lat="45.32963" lon="4.73694">
        <ele>359.67</ele>
        <time>2022-04-25T09:05:22Z</time>
      </trkpt>
      <trkpt lat="45.32948" lon="4.73726">
        <ele>359.67</ele>
        <time>2022-04-25T09:05:43Z</time>
      </trkpt>
      <trkpt lat="45.32932" lon="4.7375">
        <ele>361.59</ele>
        <time>2022-04-25T09:06:01Z</time>
      </trkpt>
      <trkpt lat="45.32916" lon="4.73782">
        <ele>360.15</ele>
        <time>2022-04-25T09:06:21Z</time>
      </trkpt>
      <trkpt lat="45.32912" lon="4.73788">
        <ele>360.15</ele>
        <time>2022-04-25T09:06:25Z</time>
      </trkpt>
      <trkpt lat="45.32896" lon="4.73814">
        <ele>360.15</ele>
        <time>2022-04-25T09:06:43Z</time>
      </trkpt>
      <trkpt lat="45.32883" lon="4.7384">
        <ele>359.67</ele>
        <time>2022-04-25T09:07:00Z</time>
      </trkpt>
      <trkpt lat="45.32877" lon="4.73855">
        <ele>359.19</ele>
        <time>2022-04-25T09:07:09Z</time>
      </trkpt>
      <trkpt lat="45.32877" lon="4.73871">
        <ele>359.19</ele>
        <time>2022-04-25T09:07:26Z</time>
      </trkpt>
      <trkpt lat="45.32877" lon="4.73873">
        <ele>359.19</ele>
        <time>2022-04-25T09:07:27Z</time>
      </trkpt>
      <trkpt lat="45.32875" lon="4.73908">
        <ele>357.27</ele>
        <time>2022-04-25T09:07:47Z</time>
      </trkpt>
      <trkpt lat="45.32867" lon="4.7393">
        <ele>355.83</ele>
        <time>2022-04-25T09:08:02Z</time>
      </trkpt>
      <trkpt lat="45.32865" lon="4.73937">
        <ele>355.34</ele>
        <time>2022-04-25T09:08:07Z</time>
      </trkpt>
      <trkpt lat="45.32851" lon="4.73965">
        <ele>355.83</ele>
        <time>2022-04-25T09:08:24Z</time>
      </trkpt>
      <trkpt lat="45.32837" lon="4.73995">
        <ele>355.34</ele>
        <time>2022-04-25T09:08:42Z</time>
      </trkpt>
      <trkpt lat="45.32824" lon="4.74027">
        <ele>354.86</ele>
        <time>2022-04-25T09:09:01Z</time>
      </trkpt>
      <trkpt lat="45.32817" lon="4.74042">
        <ele>355.34</ele>
        <time>2022-04-25T09:09:10Z</time>
      </trkpt>
      <trkpt lat="45.32807" lon="4.74077">
        <ele>355.83</ele>
        <time>2022-04-25T09:09:29Z</time>
      </trkpt>
      <trkpt lat="45.32797" lon="4.74097">
        <ele>355.83</ele>
        <time>2022-04-25T09:09:43Z</time>
      </trkpt>
      <trkpt lat="45.32785" lon="4.74122">
        <ele>355.83</ele>
        <time>2022-04-25T09:10:03Z</time>
      </trkpt>
      <trkpt lat="45.32771" lon="4.74142">
        <ele>354.38</ele>
        <time>2022-04-25T09:10:17Z</time>
      </trkpt>
      <trkpt lat="45.32752" lon="4.74166">
        <ele>353.42</ele>
        <time>2022-04-25T09:10:35Z</time>
      </trkpt>
      <trkpt lat="45.32738" lon="4.74187">
        <ele>352.94</ele>
        <time>2022-04-25T09:10:51Z</time>
      </trkpt>
      <trkpt lat="45.32726" lon="4.74207">
        <ele>353.9</ele>
        <time>2022-04-25T09:11:05Z</time>
      </trkpt>
      <trkpt lat="45.32719" lon="4.74231">
        <ele>354.38</ele>
        <time>2022-04-25T09:11:21Z</time>
      </trkpt>
      <trkpt lat="45.32715" lon="4.7426">
        <ele>353.42</ele>
        <time>2022-04-25T09:11:37Z</time>
      </trkpt>
      <trkpt lat="45.32715" lon="4.74261">
        <ele>353.42</ele>
        <time>2022-04-25T09:11:38Z</time>
      </trkpt>
      <trkpt lat="45.3271" lon="4.74274">
        <ele>352.94</ele>
        <time>2022-04-25T09:11:46Z</time>
      </trkpt>
      <trkpt lat="45.32722" lon="4.74306">
        <ele>352.94</ele>
        <time>2022-04-25T09:12:06Z</time>
      </trkpt>
      <trkpt lat="45.32727" lon="4.74325">
        <ele>352.94</ele>
        <time>2022-04-25T09:12:17Z</time>
      </trkpt>
      <trkpt lat="45.3273" lon="4.74339">
        <ele>352.46</ele>
        <time>2022-04-25T09:12:24Z</time>
      </trkpt>
      <trkpt lat="45.3273" lon="4.74349">
        <ele>352.46</ele>
        <time>2022-04-25T09:12:29Z</time>
      </trkpt>
      <trkpt lat="45.32732" lon="4.74354">
        <ele>351.98</ele>
        <time>2022-04-25T09:12:32Z</time>
      </trkpt>
      <trkpt lat="45.32734" lon="4.7436">
        <ele>351.98</ele>
        <time>2022-04-25T09:12:35Z</time>
      </trkpt>
      <trkpt lat="45.32723" lon="4.74386">
        <ele>351.98</ele>
        <time>2022-04-25T09:12:51Z</time>
      </trkpt>
      <trkpt lat="45.32712" lon="4.74418">
        <ele>350.54</ele>
        <time>2022-04-25T09:13:08Z</time>
      </trkpt>
      <trkpt lat="45.32708" lon="4.74453">
        <ele>350.06</ele>
        <time>2022-04-25T09:13:26Z</time>
      </trkpt>
      <trkpt lat="45.32708" lon="4.74483">
        <ele>347.65</ele>
        <time>2022-04-25T09:13:43Z</time>
      </trkpt>
      <trkpt lat="45.32706" lon="4.7451">
        <ele>347.17</ele>
        <time>2022-04-25T09:13:57Z</time>
      </trkpt>
      <trkpt lat="45.32704" lon="4.7454">
        <ele>345.73</ele>
        <time>2022-04-25T09:14:13Z</time>
      </trkpt>
      <trkpt lat="45.32701" lon="4.74569">
        <ele>343.33</ele>
        <time>2022-04-25T09:14:29Z</time>
      </trkpt>
      <trkpt lat="45.32694" lon="4.7458">
        <ele>342.37</ele>
        <time>2022-04-25T09:14:37Z</time>
      </trkpt>
      <trkpt lat="45.32687" lon="4.74585">
        <ele>341.89</ele>
        <time>2022-04-25T09:14:45Z</time>
      </trkpt>
      <trkpt lat="45.32681" lon="4.74579">
        <ele>341.89</ele>
        <time>2022-04-25T09:15:01Z</time>
      </trkpt>
      <trkpt lat="45.32683" lon="4.74579">
        <ele>341.41</ele>
        <time>2022-04-25T09:15:31Z</time>
      </trkpt>
      <trkpt lat="45.32681" lon="4.74579">
        <ele>341.41</ele>
        <time>2022-04-25T09:15:59Z</time>
      </trkpt>
      <trkpt lat="45.32679" lon="4.74579">
        <ele>341.89</ele>
        <time>2022-04-25T09:16:01Z</time>
      </trkpt>
      <trkpt lat="45.32675" lon="4.7458">
        <ele>341.41</ele>
        <time>2022-04-25T09:16:06Z</time>
      </trkpt>
      <trkpt lat="45.32653" lon="4.7457">
        <ele>340.44</ele>
        <time>2022-04-25T09:16:23Z</time>
      </trkpt>
      <trkpt lat="45.3263" lon="4.74577">
        <ele>339</ele>
        <time>2022-04-25T09:16:42Z</time>
      </trkpt>
      <trkpt lat="45.32611" lon="4.74593">
        <ele>337.08</ele>
        <time>2022-04-25T09:16:58Z</time>
      </trkpt>
      <trkpt lat="45.32595" lon="4.74608">
        <ele>334.68</ele>
        <time>2022-04-25T09:17:14Z</time>
      </trkpt>
      <trkpt lat="45.32585" lon="4.74614">
        <ele>332.75</ele>
        <time>2022-04-25T09:17:24Z</time>
      </trkpt>
      <trkpt lat="45.3258" lon="4.74614">
        <ele>331.79</ele>
        <time>2022-04-25T09:17:29Z</time>
      </trkpt>
      <trkpt lat="45.32561" lon="4.74613">
        <ele>331.31</ele>
        <time>2022-04-25T09:17:44Z</time>
      </trkpt>
      <trkpt lat="45.3255" lon="4.74622">
        <ele>330.83</ele>
        <time>2022-04-25T09:17:53Z</time>
      </trkpt>
      <trkpt lat="45.32549" lon="4.74658">
        <ele>328.43</ele>
        <time>2022-04-25T09:18:09Z</time>
      </trkpt>
      <trkpt lat="45.3255" lon="4.74672">
        <ele>327.47</ele>
        <time>2022-04-25T09:18:16Z</time>
      </trkpt>
      <trkpt lat="45.32551" lon="4.74703">
        <ele>326.5</ele>
        <time>2022-04-25T09:18:34Z</time>
      </trkpt>
      <trkpt lat="45.32553" lon="4.74736">
        <ele>326.02</ele>
        <time>2022-04-25T09:18:50Z</time>
      </trkpt>
      <trkpt lat="45.32552" lon="4.74761">
        <ele>326.02</ele>
        <time>2022-04-25T09:19:03Z</time>
      </trkpt>
      <trkpt lat="45.3255" lon="4.74791">
        <ele>325.54</ele>
        <time>2022-04-25T09:19:19Z</time>
      </trkpt>
      <trkpt lat="45.32541" lon="4.7483">
        <ele>324.58</ele>
        <time>2022-04-25T09:19:38Z</time>
      </trkpt>
      <trkpt lat="45.32535" lon="4.74859">
        <ele>324.1</ele>
        <time>2022-04-25T09:19:55Z</time>
      </trkpt>
      <trkpt lat="45.32519" lon="4.74881">
        <ele>323.62</ele>
        <time>2022-04-25T09:20:12Z</time>
      </trkpt>
      <trkpt lat="45.32507" lon="4.74898">
        <ele>322.18</ele>
        <time>2022-04-25T09:20:25Z</time>
      </trkpt>
      <trkpt lat="45.32504" lon="4.74929">
        <ele>320.26</ele>
        <time>2022-04-25T09:20:42Z</time>
      </trkpt>
      <trkpt lat="45.3251" lon="4.74967">
        <ele>317.85</ele>
        <time>2022-04-25T09:21:01Z</time>
      </trkpt>
      <trkpt lat="45.32526" lon="4.74985">
        <ele>315.45</ele>
        <time>2022-04-25T09:21:16Z</time>
      </trkpt>
      <trkpt lat="45.32553" lon="4.75003">
        <ele>312.57</ele>
        <time>2022-04-25T09:21:36Z</time>
      </trkpt>
      <trkpt lat="45.32571" lon="4.75019">
        <ele>311.12</ele>
        <time>2022-04-25T09:21:54Z</time>
      </trkpt>
      <trkpt lat="45.32572" lon="4.75024">
        <ele>311.12</ele>
        <time>2022-04-25T09:21:57Z</time>
      </trkpt>
      <trkpt lat="45.32579" lon="4.75056">
        <ele>310.64</ele>
        <time>2022-04-25T09:22:14Z</time>
      </trkpt>
      <trkpt lat="45.3258" lon="4.75089">
        <ele>307.76</ele>
        <time>2022-04-25T09:22:31Z</time>
      </trkpt>
      <trkpt lat="45.32573" lon="4.75125">
        <ele>305.84</ele>
        <time>2022-04-25T09:22:51Z</time>
      </trkpt>
      <trkpt lat="45.32562" lon="4.75167">
        <ele>305.36</ele>
        <time>2022-04-25T09:23:13Z</time>
      </trkpt>
      <trkpt lat="45.32553" lon="4.75203">
        <ele>304.39</ele>
        <time>2022-04-25T09:23:32Z</time>
      </trkpt>
      <trkpt lat="45.32548" lon="4.75234">
        <ele>303.43</ele>
        <time>2022-04-25T09:23:49Z</time>
      </trkpt>
      <trkpt lat="45.32539" lon="4.75258">
        <ele>302.95</ele>
        <time>2022-04-25T09:24:04Z</time>
      </trkpt>
      <trkpt lat="45.32539" lon="4.75282">
        <ele>300.07</ele>
        <time>2022-04-25T09:24:18Z</time>
      </trkpt>
      <trkpt lat="45.32542" lon="4.75307">
        <ele>297.18</ele>
        <time>2022-04-25T09:24:33Z</time>
      </trkpt>
      <trkpt lat="45.32544" lon="4.75332">
        <ele>293.82</ele>
        <time>2022-04-25T09:24:47Z</time>
      </trkpt>
      <trkpt lat="45.32543" lon="4.75336">
        <ele>293.34</ele>
        <time>2022-04-25T09:24:49Z</time>
      </trkpt>
      <trkpt lat="45.32542" lon="4.75353">
        <ele>290.94</ele>
        <time>2022-04-25T09:24:59Z</time>
      </trkpt>
      <trkpt lat="45.32538" lon="4.75359">
        <ele>290.46</ele>
        <time>2022-04-25T09:25:03Z</time>
      </trkpt>
      <trkpt lat="45.32524" lon="4.75373">
        <ele>286.61</ele>
        <time>2022-04-25T09:25:17Z</time>
      </trkpt>
      <trkpt lat="45.32509" lon="4.7539">
        <ele>283.73</ele>
        <time>2022-04-25T09:25:32Z</time>
      </trkpt>
      <trkpt lat="45.32498" lon="4.7541">
        <ele>280.36</ele>
        <time>2022-04-25T09:25:47Z</time>
      </trkpt>
      <trkpt lat="45.32497" lon="4.75412">
        <ele>279.88</ele>
        <time>2022-04-25T09:25:49Z</time>
      </trkpt>
      <trkpt lat="45.32473" lon="4.75426">
        <ele>276.52</ele>
        <time>2022-04-25T09:26:09Z</time>
      </trkpt>
      <trkpt lat="45.32452" lon="4.75426">
        <ele>274.59</ele>
        <time>2022-04-25T09:26:26Z</time>
      </trkpt>
      <trkpt lat="45.32428" lon="4.75435">
        <ele>272.67</ele>
        <time>2022-04-25T09:26:45Z</time>
      </trkpt>
      <trkpt lat="45.32408" lon="4.75453">
        <ele>269.79</ele>
        <time>2022-04-25T09:27:02Z</time>
      </trkpt>
      <trkpt lat="45.3239" lon="4.75472">
        <ele>266.9</ele>
        <time>2022-04-25T09:27:20Z</time>
      </trkpt>
      <trkpt lat="45.32375" lon="4.75488">
        <ele>263.54</ele>
        <time>2022-04-25T09:27:35Z</time>
      </trkpt>
      <trkpt lat="45.32362" lon="4.75501">
        <ele>260.17</ele>
        <time>2022-04-25T09:27:48Z</time>
      </trkpt>
      <trkpt lat="45.32342" lon="4.75502">
        <ele>257.29</ele>
        <time>2022-04-25T09:28:04Z</time>
      </trkpt>
      <trkpt lat="45.32323" lon="4.75493">
        <ele>255.37</ele>
        <time>2022-04-25T09:28:20Z</time>
      </trkpt>
      <trkpt lat="45.32308" lon="4.75476">
        <ele>254.41</ele>
        <time>2022-04-25T09:28:33Z</time>
      </trkpt>
      <trkpt lat="45.32298" lon="4.75457">
        <ele>252.96</ele>
        <time>2022-04-25T09:28:46Z</time>
      </trkpt>
      <trkpt lat="45.32283" lon="4.75439">
        <ele>252</ele>
        <time>2022-04-25T09:29:02Z</time>
      </trkpt>
      <trkpt lat="45.32267" lon="4.7543">
        <ele>251.04</ele>
        <time>2022-04-25T09:29:18Z</time>
      </trkpt>
      <trkpt lat="45.32257" lon="4.7542">
        <ele>250.56</ele>
        <time>2022-04-25T09:29:31Z</time>
      </trkpt>
      <trkpt lat="45.32236" lon="4.75451">
        <ele>250.56</ele>
        <time>2022-04-25T09:29:48Z</time>
      </trkpt>
      <trkpt lat="45.3224" lon="4.75462">
        <ele>250.08</ele>
        <time>2022-04-25T09:29:56Z</time>
      </trkpt>
      <trkpt lat="45.32248" lon="4.75478">
        <ele>250.56</ele>
        <time>2022-04-25T09:30:07Z</time>
      </trkpt>
      <trkpt lat="45.32262" lon="4.75504">
        <ele>249.12</ele>
        <time>2022-04-25T09:30:23Z</time>
      </trkpt>
      <trkpt lat="45.32265" lon="4.75513">
        <ele>248.64</ele>
        <time>2022-04-25T09:30:27Z</time>
      </trkpt>
      <trkpt lat="45.32278" lon="4.75537">
        <ele>247.2</ele>
        <time>2022-04-25T09:30:42Z</time>
      </trkpt>
      <trkpt lat="45.32285" lon="4.75555">
        <ele>243.83</ele>
        <time>2022-04-25T09:30:57Z</time>
      </trkpt>
      <trkpt lat="45.32289" lon="4.75575">
        <ele>241.91</ele>
        <time>2022-04-25T09:31:08Z</time>
      </trkpt>
      <trkpt lat="45.32301" lon="4.75597">
        <ele>239.02</ele>
        <time>2022-04-25T09:31:24Z</time>
      </trkpt>
      <trkpt lat="45.32307" lon="4.7562">
        <ele>236.62</ele>
        <time>2022-04-25T09:31:38Z</time>
      </trkpt>
      <trkpt lat="45.32318" lon="4.75641">
        <ele>233.74</ele>
        <time>2022-04-25T09:31:54Z</time>
      </trkpt>
      <trkpt lat="45.32319" lon="4.75642">
        <ele>233.26</ele>
        <time>2022-04-25T09:31:55Z</time>
      </trkpt>
      <trkpt lat="45.32322" lon="4.75659">
        <ele>231.81</ele>
        <time>2022-04-25T09:32:08Z</time>
      </trkpt>
      <trkpt lat="45.32304" lon="4.75654">
        <ele>230.37</ele>
        <time>2022-04-25T09:32:24Z</time>
      </trkpt>
      <trkpt lat="45.32289" lon="4.75646">
        <ele>228.45</ele>
        <time>2022-04-25T09:32:37Z</time>
      </trkpt>
      <trkpt lat="45.32271" lon="4.75638">
        <ele>226.05</ele>
        <time>2022-04-25T09:32:51Z</time>
      </trkpt>
      <trkpt lat="45.32251" lon="4.7563">
        <ele>225.09</ele>
        <time>2022-04-25T09:33:05Z</time>
      </trkpt>
      <trkpt lat="45.32231" lon="4.75633">
        <ele>223.64</ele>
        <time>2022-04-25T09:33:21Z</time>
      </trkpt>
      <trkpt lat="45.32216" lon="4.75641">
        <ele>221.24</ele>
        <time>2022-04-25T09:33:35Z</time>
      </trkpt>
      <trkpt lat="45.32206" lon="4.75648">
        <ele>219.32</ele>
        <time>2022-04-25T09:33:52Z</time>
      </trkpt>
      <trkpt lat="45.32199" lon="4.7566">
        <ele>216.43</ele>
        <time>2022-04-25T09:34:03Z</time>
      </trkpt>
      <trkpt lat="45.32191" lon="4.75686">
        <ele>213.07</ele>
        <time>2022-04-25T09:34:18Z</time>
      </trkpt>
      <trkpt lat="45.32192" lon="4.75687">
        <ele>213.07</ele>
        <time>2022-04-25T09:34:19Z</time>
      </trkpt>
      <trkpt lat="45.32201" lon="4.75701">
        <ele>211.15</ele>
        <time>2022-04-25T09:34:29Z</time>
      </trkpt>
      <trkpt lat="45.32214" lon="4.75721">
        <ele>208.26</ele>
        <time>2022-04-25T09:34:43Z</time>
      </trkpt>
      <trkpt lat="45.32224" lon="4.75744">
        <ele>205.86</ele>
        <time>2022-04-25T09:34:59Z</time>
      </trkpt>
      <trkpt lat="45.32224" lon="4.75755">
        <ele>204.9</ele>
        <time>2022-04-25T09:35:07Z</time>
      </trkpt>
      <trkpt lat="45.32228" lon="4.7578">
        <ele>202.98</ele>
        <time>2022-04-25T09:35:20Z</time>
      </trkpt>
      <trkpt lat="45.32226" lon="4.758">
        <ele>200.09</ele>
        <time>2022-04-25T09:35:33Z</time>
      </trkpt>
      <trkpt lat="45.32225" lon="4.75802">
        <ele>200.09</ele>
        <time>2022-04-25T09:35:34Z</time>
      </trkpt>
      <trkpt lat="45.32212" lon="4.75819">
        <ele>197.69</ele>
        <time>2022-04-25T09:35:50Z</time>
      </trkpt>
      <trkpt lat="45.32205" lon="4.7583">
        <ele>196.73</ele>
        <time>2022-04-25T09:35:58Z</time>
      </trkpt>
      <trkpt lat="45.32194" lon="4.75868">
        <ele>195.28</ele>
        <time>2022-04-25T09:36:16Z</time>
      </trkpt>
      <trkpt lat="45.32186" lon="4.75875">
        <ele>194.8</ele>
        <time>2022-04-25T09:36:23Z</time>
      </trkpt>
      <trkpt lat="45.32165" lon="4.75893">
        <ele>194.32</ele>
        <time>2022-04-25T09:36:41Z</time>
      </trkpt>
      <trkpt lat="45.32158" lon="4.75899">
        <ele>194.32</ele>
        <time>2022-04-25T09:36:48Z</time>
      </trkpt>
      <trkpt lat="45.32144" lon="4.75917">
        <ele>191.92</ele>
        <time>2022-04-25T09:37:03Z</time>
      </trkpt>
      <trkpt lat="45.32134" lon="4.75935">
        <ele>190.48</ele>
        <time>2022-04-25T09:37:18Z</time>
      </trkpt>
      <trkpt lat="45.32126" lon="4.7596">
        <ele>189.04</ele>
        <time>2022-04-25T09:37:32Z</time>
      </trkpt>
      <trkpt lat="45.32109" lon="4.75984">
        <ele>185.67</ele>
        <time>2022-04-25T09:37:49Z</time>
      </trkpt>
      <trkpt lat="45.32095" lon="4.76001">
        <ele>182.31</ele>
        <time>2022-04-25T09:38:07Z</time>
      </trkpt>
      <trkpt lat="45.3208" lon="4.76014">
        <ele>178.94</ele>
        <time>2022-04-25T09:38:25Z</time>
      </trkpt>
      <trkpt lat="45.32066" lon="4.76024">
        <ele>176.54</ele>
        <time>2022-04-25T09:38:43Z</time>
      </trkpt>
      <trkpt lat="45.32052" lon="4.76036">
        <ele>173.66</ele>
        <time>2022-04-25T09:39:01Z</time>
      </trkpt>
      <trkpt lat="45.32035" lon="4.76042">
        <ele>171.73</ele>
        <time>2022-04-25T09:39:16Z</time>
      </trkpt>
      <trkpt lat="45.32016" lon="4.76057">
        <ele>169.33</ele>
        <time>2022-04-25T09:39:34Z</time>
      </trkpt>
      <trkpt lat="45.31999" lon="4.76071">
        <ele>167.41</ele>
        <time>2022-04-25T09:39:48Z</time>
      </trkpt>
      <trkpt lat="45.31981" lon="4.76086">
        <ele>164.04</ele>
        <time>2022-04-25T09:40:07Z</time>
      </trkpt>
      <trkpt lat="45.31968" lon="4.76095">
        <ele>162.12</ele>
        <time>2022-04-25T09:40:21Z</time>
      </trkpt>
      <trkpt lat="45.31955" lon="4.76088">
        <ele>165.48</ele>
        <time>2022-04-25T09:40:36Z</time>
      </trkpt>
      <trkpt lat="45.31941" lon="4.76081">
        <ele>167.41</ele>
        <time>2022-04-25T09:40:52Z</time>
      </trkpt>
      <trkpt lat="45.31931" lon="4.76064">
        <ele>169.81</ele>
        <time>2022-04-25T09:41:09Z</time>
      </trkpt>
      <trkpt lat="45.31921" lon="4.76048">
        <ele>170.77</ele>
        <time>2022-04-25T09:41:24Z</time>
      </trkpt>
      <trkpt lat="45.31913" lon="4.76029">
        <ele>172.69</ele>
        <time>2022-04-25T09:41:40Z</time>
      </trkpt>
      <trkpt lat="45.31909" lon="4.76016">
        <ele>172.21</ele>
        <time>2022-04-25T09:41:57Z</time>
      </trkpt>
      <trkpt lat="45.31895" lon="4.75995">
        <ele>168.85</ele>
        <time>2022-04-25T09:42:14Z</time>
      </trkpt>
      <trkpt lat="45.3189" lon="4.75989">
        <ele>168.85</ele>
        <time>2022-04-25T09:42:20Z</time>
      </trkpt>
      <trkpt lat="45.31884" lon="4.75982">
        <ele>167.89</ele>
        <time>2022-04-25T09:42:25Z</time>
      </trkpt>
      <trkpt lat="45.31873" lon="4.75965">
        <ele>165.48</ele>
        <time>2022-04-25T09:42:37Z</time>
      </trkpt>
      <trkpt lat="45.31853" lon="4.75947">
        <ele>164.04</ele>
        <time>2022-04-25T09:42:53Z</time>
      </trkpt>
      <trkpt lat="45.31841" lon="4.75952">
        <ele>164.52</ele>
        <time>2022-04-25T09:43:09Z</time>
      </trkpt>
      <trkpt lat="45.31839" lon="4.75978">
        <ele>167.41</ele>
        <time>2022-04-25T09:43:28Z</time>
      </trkpt>
      <trkpt lat="45.31832" lon="4.76001">
        <ele>169.33</ele>
        <time>2022-04-25T09:43:46Z</time>
      </trkpt>
      <trkpt lat="45.31823" lon="4.7601">
        <ele>171.25</ele>
        <time>2022-04-25T09:44:01Z</time>
      </trkpt>
      <trkpt lat="45.31811" lon="4.76037">
        <ele>169.33</ele>
        <time>2022-04-25T09:44:18Z</time>
      </trkpt>
      <trkpt lat="45.31812" lon="4.76045">
        <ele>167.89</ele>
        <time>2022-04-25T09:44:29Z</time>
      </trkpt>
      <trkpt lat="45.31826" lon="4.76068">
        <ele>167.41</ele>
        <time>2022-04-25T09:44:48Z</time>
      </trkpt>
      <trkpt lat="45.31831" lon="4.76086">
        <ele>165.48</ele>
        <time>2022-04-25T09:45:03Z</time>
      </trkpt>
      <trkpt lat="45.31834" lon="4.76092">
        <ele>164.52</ele>
        <time>2022-04-25T09:45:09Z</time>
      </trkpt>
      <trkpt lat="45.31836" lon="4.76096">
        <ele>163.56</ele>
        <time>2022-04-25T09:45:12Z</time>
      </trkpt>
      <trkpt lat="45.3184" lon="4.76109">
        <ele>161.16</ele>
        <time>2022-04-25T09:45:23Z</time>
      </trkpt>
      <trkpt lat="45.31841" lon="4.76116">
        <ele>158.75</ele>
        <time>2022-04-25T09:45:31Z</time>
      </trkpt>
      <trkpt lat="45.31841" lon="4.7613">
        <ele>157.31</ele>
        <time>2022-04-25T09:45:41Z</time>
      </trkpt>
      <trkpt lat="45.31835" lon="4.76151">
        <ele>153.95</ele>
        <time>2022-04-25T09:45:54Z</time>
      </trkpt>
      <trkpt lat="45.31837" lon="4.76155">
        <ele>153.47</ele>
        <time>2022-04-25T09:45:56Z</time>
      </trkpt>
      <trkpt lat="45.31856" lon="4.76164">
        <ele>150.1</ele>
        <time>2022-04-25T09:46:12Z</time>
      </trkpt>
      <trkpt lat="45.31859" lon="4.76168">
        <ele>149.14</ele>
        <time>2022-04-25T09:46:16Z</time>
      </trkpt>
      <trkpt lat="45.31857" lon="4.7619">
        <ele>146.74</ele>
        <time>2022-04-25T09:46:30Z</time>
      </trkpt>
      <trkpt lat="45.31855" lon="4.762">
        <ele>146.26</ele>
        <time>2022-04-25T09:46:35Z</time>
      </trkpt>
      <trkpt lat="45.31852" lon="4.76216">
        <ele>144.82</ele>
        <time>2022-04-25T09:46:51Z</time>
      </trkpt>
      <trkpt lat="45.31861" lon="4.76241">
        <ele>142.89</ele>
        <time>2022-04-25T09:47:05Z</time>
      </trkpt>
      <trkpt lat="45.31862" lon="4.76255">
        <ele>142.41</ele>
        <time>2022-04-25T09:47:11Z</time>
      </trkpt>
      <trkpt lat="45.31873" lon="4.7628">
        <ele>140.49</ele>
        <time>2022-04-25T09:47:28Z</time>
      </trkpt>
      <trkpt lat="45.31885" lon="4.76304">
        <ele>139.53</ele>
        <time>2022-04-25T09:47:44Z</time>
      </trkpt>
      <trkpt lat="45.31901" lon="4.76332">
        <ele>138.57</ele>
        <time>2022-04-25T09:48:00Z</time>
      </trkpt>
      <trkpt lat="45.31899" lon="4.76355">
        <ele>136.64</ele>
        <time>2022-04-25T09:48:13Z</time>
      </trkpt>
      <trkpt lat="45.31903" lon="4.76379">
        <ele>134.24</ele>
        <time>2022-04-25T09:48:30Z</time>
      </trkpt>
      <trkpt lat="45.31902" lon="4.76416">
        <ele>133.76</ele>
        <time>2022-04-25T09:48:47Z</time>
      </trkpt>
      <trkpt lat="45.31895" lon="4.76435">
        <ele>134.24</ele>
        <time>2022-04-25T09:49:00Z</time>
      </trkpt>
      <trkpt lat="45.31886" lon="4.76452">
        <ele>134.72</ele>
        <time>2022-04-25T09:49:17Z</time>
      </trkpt>
      <trkpt lat="45.31875" lon="4.76473">
        <ele>134.24</ele>
        <time>2022-04-25T09:49:32Z</time>
      </trkpt>
      <trkpt lat="45.31871" lon="4.76486">
        <ele>133.76</ele>
        <time>2022-04-25T09:49:37Z</time>
      </trkpt>
      <trkpt lat="45.31863" lon="4.76514">
        <ele>134.24</ele>
        <time>2022-04-25T09:49:51Z</time>
      </trkpt>
      <trkpt lat="45.31855" lon="4.76525">
        <ele>133.76</ele>
        <time>2022-04-25T09:50:00Z</time>
      </trkpt>
      <trkpt lat="45.31848" lon="4.7653">
        <ele>134.24</ele>
        <time>2022-04-25T09:50:06Z</time>
      </trkpt>
      <trkpt lat="45.31834" lon="4.76553">
        <ele>134.24</ele>
        <time>2022-04-25T09:50:23Z</time>
      </trkpt>
      <trkpt lat="45.31819" lon="4.76569">
        <ele>135.2</ele>
        <time>2022-04-25T09:50:39Z</time>
      </trkpt>
      <trkpt lat="45.31815" lon="4.76575">
        <ele>135.2</ele>
        <time>2022-04-25T09:50:44Z</time>
      </trkpt>
      <trkpt lat="45.31797" lon="4.76606">
        <ele>136.64</ele>
        <time>2022-04-25T09:51:04Z</time>
      </trkpt>
      <trkpt lat="45.31803" lon="4.76629">
        <ele>137.61</ele>
        <time>2022-04-25T09:51:19Z</time>
      </trkpt>
      <trkpt lat="45.31811" lon="4.7665">
        <ele>137.61</ele>
        <time>2022-04-25T09:51:32Z</time>
      </trkpt>
      <trkpt lat="45.31822" lon="4.76671">
        <ele>139.05</ele>
        <time>2022-04-25T09:51:44Z</time>
      </trkpt>
      <trkpt lat="45.3183" lon="4.76691">
        <ele>139.05</ele>
        <time>2022-04-25T09:51:57Z</time>
      </trkpt>
      <trkpt lat="45.31832" lon="4.76694">
        <ele>140.01</ele>
        <time>2022-04-25T09:52:00Z</time>
      </trkpt>
      <trkpt lat="45.3184" lon="4.76715">
        <ele>139.53</ele>
        <time>2022-04-25T09:52:15Z</time>
      </trkpt>
      <trkpt lat="45.31851" lon="4.76738">
        <ele>140.01</ele>
        <time>2022-04-25T09:52:30Z</time>
      </trkpt>
      <trkpt lat="45.3186" lon="4.76762">
        <ele>139.53</ele>
        <time>2022-04-25T09:52:45Z</time>
      </trkpt>
      <trkpt lat="45.31867" lon="4.76774">
        <ele>138.57</ele>
        <time>2022-04-25T09:52:53Z</time>
      </trkpt>
      <trkpt lat="45.31875" lon="4.76791">
        <ele>138.09</ele>
        <time>2022-04-25T09:53:04Z</time>
      </trkpt>
      <trkpt lat="45.31887" lon="4.76813">
        <ele>137.13</ele>
        <time>2022-04-25T09:53:19Z</time>
      </trkpt>
      <trkpt lat="45.31889" lon="4.76816">
        <ele>137.13</ele>
        <time>2022-04-25T09:53:21Z</time>
      </trkpt>
      <trkpt lat="45.319" lon="4.76829">
        <ele>136.16</ele>
        <time>2022-04-25T09:53:33Z</time>
      </trkpt>
      <trkpt lat="45.3192" lon="4.76831">
        <ele>134.24</ele>
        <time>2022-04-25T09:53:48Z</time>
      </trkpt>
      <trkpt lat="45.31931" lon="4.76832">
        <ele>133.28</ele>
        <time>2022-04-25T09:53:57Z</time>
      </trkpt>
      <trkpt lat="45.31936" lon="4.7684">
        <ele>133.76</ele>
        <time>2022-04-25T09:54:03Z</time>
      </trkpt>
      <trkpt lat="45.3195" lon="4.76838">
        <ele>132.8</ele>
        <time>2022-04-25T09:54:14Z</time>
      </trkpt>
      <trkpt lat="45.31956" lon="4.76849">
        <ele>132.32</ele>
        <time>2022-04-25T09:54:20Z</time>
      </trkpt>
      <trkpt lat="45.31965" lon="4.76874">
        <ele>132.32</ele>
        <time>2022-04-25T09:54:35Z</time>
      </trkpt>
      <trkpt lat="45.31969" lon="4.76893">
        <ele>132.8</ele>
        <time>2022-04-25T09:54:49Z</time>
      </trkpt>
      <trkpt lat="45.31977" lon="4.76918">
        <ele>132.32</ele>
        <time>2022-04-25T09:55:03Z</time>
      </trkpt>
      <trkpt lat="45.31986" lon="4.76931">
        <ele>132.32</ele>
        <time>2022-04-25T09:55:15Z</time>
      </trkpt>
      <trkpt lat="45.31989" lon="4.76928">
        <ele>132.8</ele>
        <time>2022-04-25T09:55:22Z</time>
      </trkpt>
      <trkpt lat="45.31996" lon="4.76926">
        <ele>132.32</ele>
        <time>2022-04-25T09:55:24Z</time>
      </trkpt>
      <trkpt lat="45.32005" lon="4.76927">
        <ele>131.84</ele>
        <time>2022-04-25T09:55:29Z</time>
      </trkpt>
      <trkpt lat="45.3202" lon="4.76918">
        <ele>132.32</ele>
        <time>2022-04-25T09:55:42Z</time>
      </trkpt>
      <trkpt lat="45.32022" lon="4.76917">
        <ele>131.36</ele>
        <time>2022-04-25T09:55:47Z</time>
      </trkpt>
      <trkpt lat="45.32026" lon="4.76915">
        <ele>131.36</ele>
        <time>2022-04-25T09:55:50Z</time>
      </trkpt>
      <trkpt lat="45.32032" lon="4.76913">
        <ele>131.84</ele>
        <time>2022-04-25T09:55:55Z</time>
      </trkpt>
      <trkpt lat="45.32054" lon="4.76902">
        <ele>131.84</ele>
        <time>2022-04-25T09:56:12Z</time>
      </trkpt>
      <trkpt lat="45.32056" lon="4.76901">
        <ele>131.84</ele>
        <time>2022-04-25T09:56:15Z</time>
      </trkpt>
      <trkpt lat="45.32075" lon="4.76893">
        <ele>132.32</ele>
        <time>2022-04-25T09:56:29Z</time>
      </trkpt>
      <trkpt lat="45.3209" lon="4.76893">
        <ele>132.32</ele>
        <time>2022-04-25T09:56:41Z</time>
      </trkpt>
      <trkpt lat="45.32104" lon="4.76894">
        <ele>131.36</ele>
        <time>2022-04-25T09:56:52Z</time>
      </trkpt>
      <trkpt lat="45.32121" lon="4.76921">
        <ele>132.32</ele>
        <time>2022-04-25T09:57:10Z</time>
      </trkpt>
      <trkpt lat="45.32136" lon="4.76947">
        <ele>132.32</ele>
        <time>2022-04-25T09:57:29Z</time>
      </trkpt>
      <trkpt lat="45.32146" lon="4.76965">
        <ele>132.32</ele>
        <time>2022-04-25T09:57:42Z</time>
      </trkpt>
      <trkpt lat="45.32152" lon="4.7697">
        <ele>132.32</ele>
        <time>2022-04-25T09:57:47Z</time>
      </trkpt>
      <trkpt lat="45.32165" lon="4.76989">
        <ele>132.32</ele>
        <time>2022-04-25T09:58:03Z</time>
      </trkpt>
      <trkpt lat="45.32166" lon="4.76996">
        <ele>132.32</ele>
        <time>2022-04-25T09:58:08Z</time>
      </trkpt>
      <trkpt lat="45.32177" lon="4.7703">
        <ele>132.32</ele>
        <time>2022-04-25T09:58:26Z</time>
      </trkpt>
      <trkpt lat="45.32182" lon="4.77047">
        <ele>132.32</ele>
        <time>2022-04-25T09:58:35Z</time>
      </trkpt>
      <trkpt lat="45.32191" lon="4.77071">
        <ele>132.32</ele>
        <time>2022-04-25T09:58:50Z</time>
      </trkpt>
      <trkpt lat="45.32192" lon="4.77074">
        <ele>132.32</ele>
        <time>2022-04-25T09:58:52Z</time>
      </trkpt>
      <trkpt lat="45.32196" lon="4.77088">
        <ele>131.84</ele>
        <time>2022-04-25T09:59:01Z</time>
      </trkpt>
      <trkpt lat="45.32206" lon="4.77117">
        <ele>131.84</ele>
        <time>2022-04-25T09:59:18Z</time>
      </trkpt>
      <trkpt lat="45.32214" lon="4.77139">
        <ele>131.84</ele>
        <time>2022-04-25T09:59:32Z</time>
      </trkpt>
      <trkpt lat="45.32224" lon="4.77169">
        <ele>132.32</ele>
        <time>2022-04-25T09:59:50Z</time>
      </trkpt>
      <trkpt lat="45.32228" lon="4.77179">
        <ele>131.84</ele>
        <time>2022-04-25T09:59:58Z</time>
      </trkpt>
      <trkpt lat="45.32236" lon="4.77207">
        <ele>132.8</ele>
        <time>2022-04-25T10:00:15Z</time>
      </trkpt>
      <trkpt lat="45.32238" lon="4.77214">
        <ele>132.32</ele>
        <time>2022-04-25T10:00:19Z</time>
      </trkpt>
      <trkpt lat="45.32248" lon="4.77244">
        <ele>132.8</ele>
        <time>2022-04-25T10:00:37Z</time>
      </trkpt>
      <trkpt lat="45.32249" lon="4.7725">
        <ele>132.32</ele>
        <time>2022-04-25T10:00:40Z</time>
      </trkpt>
      <trkpt lat="45.32258" lon="4.7728">
        <ele>132.8</ele>
        <time>2022-04-25T10:00:58Z</time>
      </trkpt>
      <trkpt lat="45.32264" lon="4.77304">
        <ele>133.28</ele>
        <time>2022-04-25T10:01:14Z</time>
      </trkpt>
      <trkpt lat="45.32271" lon="4.77331">
        <ele>132.8</ele>
        <time>2022-04-25T10:01:30Z</time>
      </trkpt>
      <trkpt lat="45.32279" lon="4.77354">
        <ele>132.32</ele>
        <time>2022-04-25T10:01:44Z</time>
      </trkpt>
      <trkpt lat="45.32286" lon="4.77386">
        <ele>132.32</ele>
        <time>2022-04-25T10:02:02Z</time>
      </trkpt>
      <trkpt lat="45.32294" lon="4.77418">
        <ele>132.8</ele>
        <time>2022-04-25T10:02:20Z</time>
      </trkpt>
      <trkpt lat="45.323" lon="4.77446">
        <ele>132.32</ele>
        <time>2022-04-25T10:02:36Z</time>
      </trkpt>
      <trkpt lat="45.32304" lon="4.77468">
        <ele>132.32</ele>
        <time>2022-04-25T10:02:49Z</time>
      </trkpt>
      <trkpt lat="45.3231" lon="4.77493">
        <ele>132.32</ele>
        <time>2022-04-25T10:03:03Z</time>
      </trkpt>
      <trkpt lat="45.32315" lon="4.77517">
        <ele>132.32</ele>
        <time>2022-04-25T10:03:16Z</time>
      </trkpt>
      <trkpt lat="45.32324" lon="4.77553">
        <ele>132.32</ele>
        <time>2022-04-25T10:03:36Z</time>
      </trkpt>
      <trkpt lat="45.32329" lon="4.77586">
        <ele>132.32</ele>
        <time>2022-04-25T10:03:54Z</time>
      </trkpt>
      <trkpt lat="45.32333" lon="4.77608">
        <ele>132.8</ele>
        <time>2022-04-25T10:04:07Z</time>
      </trkpt>
      <trkpt lat="45.32333" lon="4.77613">
        <ele>131.84</ele>
        <time>2022-04-25T10:04:10Z</time>
      </trkpt>
      <trkpt lat="45.32324" lon="4.7763">
        <ele>131.84</ele>
        <time>2022-04-25T10:04:24Z</time>
      </trkpt>
      <trkpt lat="45.32304" lon="4.7764">
        <ele>131.84</ele>
        <time>2022-04-25T10:04:42Z</time>
      </trkpt>
      <trkpt lat="45.32279" lon="4.77649">
        <ele>131.84</ele>
        <time>2022-04-25T10:05:01Z</time>
      </trkpt>
      <trkpt lat="45.32258" lon="4.77651">
        <ele>131.36</ele>
        <time>2022-04-25T10:05:18Z</time>
      </trkpt>
      <trkpt lat="45.32257" lon="4.77659">
        <ele>132.32</ele>
        <time>2022-04-25T10:05:23Z</time>
      </trkpt>
      <trkpt lat="45.32264" lon="4.77683">
        <ele>131.36</ele>
        <time>2022-04-25T10:05:39Z</time>
      </trkpt>
      <trkpt lat="45.32272" lon="4.77708">
        <ele>131.84</ele>
        <time>2022-04-25T10:05:55Z</time>
      </trkpt>
      <trkpt lat="45.32283" lon="4.77735">
        <ele>132.32</ele>
        <time>2022-04-25T10:06:12Z</time>
      </trkpt>
      <trkpt lat="45.32289" lon="4.77754">
        <ele>131.84</ele>
        <time>2022-04-25T10:06:25Z</time>
      </trkpt>
      <trkpt lat="45.323" lon="4.77775">
        <ele>132.8</ele>
        <time>2022-04-25T10:06:41Z</time>
      </trkpt>
      <trkpt lat="45.32307" lon="4.77779">
        <ele>132.32</ele>
        <time>2022-04-25T10:06:56Z</time>
      </trkpt>
      <trkpt lat="45.32311" lon="4.77779">
        <ele>131.36</ele>
        <time>2022-04-25T10:07:09Z</time>
      </trkpt>
      <trkpt lat="45.32309" lon="4.7778">
        <ele>131.84</ele>
        <time>2022-04-25T10:07:32Z</time>
      </trkpt>
      <trkpt lat="45.3231" lon="4.77781">
        <ele>132.32</ele>
        <time>2022-04-25T10:07:46Z</time>
      </trkpt>
      <trkpt lat="45.32315" lon="4.77774">
        <ele>131.84</ele>
        <time>2022-04-25T10:08:07Z</time>
      </trkpt>
      <trkpt lat="45.32314" lon="4.77773">
        <ele>132.32</ele>
        <time>2022-04-25T10:08:37Z</time>
      </trkpt>
      <trkpt lat="45.32306" lon="4.77777">
        <ele>132.8</ele>
        <time>2022-04-25T10:09:03Z</time>
      </trkpt>
      <trkpt lat="45.32302" lon="4.77787">
        <ele>133.28</ele>
        <time>2022-04-25T10:09:33Z</time>
      </trkpt>
      <trkpt lat="45.32304" lon="4.77793">
        <ele>133.28</ele>
        <time>2022-04-25T10:10:04Z</time>
      </trkpt>
      <trkpt lat="45.32309" lon="4.77782">
        <ele>133.76</ele>
        <time>2022-04-25T10:10:37Z</time>
      </trkpt>
      <trkpt lat="45.32319" lon="4.77776">
        <ele>134.24</ele>
        <time>2022-04-25T10:11:14Z</time>
      </trkpt>
      <trkpt lat="45.32321" lon="4.77773">
        <ele>134.24</ele>
        <time>2022-04-25T10:11:56Z</time>
      </trkpt>
      <trkpt lat="45.32319" lon="4.77774">
        <ele>135.2</ele>
        <time>2022-04-25T10:12:23Z</time>
      </trkpt>
      <trkpt lat="45.32311" lon="4.77771">
        <ele>135.2</ele>
        <time>2022-04-25T10:12:46Z</time>
      </trkpt>
    </trkseg>
  </trk>
</gpx>